Observation data for Caprock Canyons on 01/17/2019      Previous  Date  Next       Current Mesonet Observations  Soil Data  Daily Summary Page  Observations in Plain Language
KQU1 170600Z 29024G31KT 13/M02 A3002 RMK A01 T01321017  RH  036%=      5-min Rain = 0
KQU1 170601Z 29025G31KT 13/M02 A3002 RMK A01 T01321016  RH  036%=      5-min Rain = 0
KQU1 170602Z 29025KT 13/M02 A3002 RMK A01 T01321016  RH  036%=      5-min Rain = 0
KQU1 170603Z 28026KT 13/M02 A3002 RMK A01 T01321017  RH  036%=      5-min Rain = 0
KQU1 170604Z 28020G25KT 13/M02 A3002 RMK A01 T01321016  RH  036%=      5-min Rain = 0
KQU1 170605Z 28021KT 13/M02 A3002 RMK A01 T01311016  RH  036%=      5-min Rain = 0
KQU1 170606Z 28024KT 13/M02 A3002 RMK A01 T01301016  RH  036%=      5-min Rain = 0
KQU1 170607Z 28020KT 13/M02 A3002 RMK A01 T01301016  RH  036%=      5-min Rain = 0
KQU1 170608Z 28018G24KT 13/M02 A3002 RMK A01 T01291016  RH  037%=      5-min Rain = 0
KQU1 170609Z 28022KT 13/M02 A3002 RMK A01 T01291016  RH  037%=      5-min Rain = 0
KQU1 170610Z 28022KT 13/M02 A3002 RMK A01 T01281016  RH  037%=      5-min Rain = 0
KQU1 170611Z 28020KT 13/M02 A3002 RMK A01 T01281016  RH  037%=      5-min Rain = 0
KQU1 170612Z 29019G28KT 13/M02 A3002 RMK A01 T01271015  RH  037%=      5-min Rain = 0
KQU1 170613Z 28021G27KT 13/M02 A3002 RMK A01 T01271015  RH  037%=      5-min Rain = 0
KQU1 170614Z 28020G27KT 13/M02 A3002 RMK A01 T01261015  RH  037%=      5-min Rain = 0
KQU1 170615Z 28019G32KT 13/M02 A3002 RMK A01 T01261015  RH  038%=      5-min Rain = 0
KQU1 170616Z 28022KT 13/M02 A3002 RMK A01 T01261015  RH  038%=      5-min Rain = 0
KQU1 170617Z 28022KT 13/M02 A3002 RMK A01 T01261015  RH  038%=      5-min Rain = 0
KQU1 170618Z 28022G27KT 13/M02 A3002 RMK A01 T01261015  RH  038%=      5-min Rain = 0
KQU1 170619Z 28021G27KT 13/M02 A3002 RMK A01 T01261015  RH  037%=      5-min Rain = 0
KQU1 170620Z 28022KT 13/M02 A3002 RMK A01 T01261015  RH  037%=      5-min Rain = 0
KQU1 170621Z 28018KT 13/M02 A3002 RMK A01 T01261015  RH  038%=      5-min Rain = 0
KQU1 170622Z 28024KT 13/M02 A3002 RMK A01 T01251015  RH  038%=      5-min Rain = 0
KQU1 170623Z 28021KT 13/M02 A3002 RMK A01 T01251015  RH  038%=      5-min Rain = 0
KQU1 170624Z 29020G25KT 13/M02 A3002 RMK A01 T01251015  RH  038%=      5-min Rain = 0
KQU1 170625Z 29023KT 13/M02 A3002 RMK A01 T01251015  RH  038%=      5-min Rain = 0
KQU1 170626Z 28022G27KT 13/M02 A3002 RMK A01 T01251015  RH  038%=      5-min Rain = 0
KQU1 170627Z 28022G28KT 13/M02 A3002 RMK A01 T01251015  RH  038%=      5-min Rain = 0
KQU1 170628Z 28022G30KT 13/M02 A3002 RMK A01 T01251015  RH  038%=      5-min Rain = 0
KQU1 170629Z 29022G27KT 12/M02 A3002 RMK A01 T01241015  RH  038%=      5-min Rain = 0
KQU1 170630Z 28023KT 13/M02 A3002 RMK A01 T01251015  RH  038%=      5-min Rain = 0
KQU1 170631Z 29021G28KT 12/M02 A3002 RMK A01 T01241015  RH  038%=      5-min Rain = 0
KQU1 170632Z 28019G24KT 12/M01 A3002 RMK A01 T01241014  RH  038%=      5-min Rain = 0
KQU1 170633Z 28023KT 12/M01 A3002 RMK A01 T01231014  RH  038%=      5-min Rain = 0
KQU1 170634Z 28022G27KT 12/M01 A3002 RMK A01 T01231014  RH  038%=      5-min Rain = 0
KQU1 170635Z 29025KT 12/M01 A3002 RMK A01 T01231014  RH  038%=      5-min Rain = 0
KQU1 170636Z 28023G32KT 12/M02 A3002 RMK A01 T01241015  RH  038%=      5-min Rain = 0
KQU1 170637Z 28022G27KT 12/M01 A3002 RMK A01 T01231014  RH  038%=      5-min Rain = 0
KQU1 170638Z 28022G27KT 12/M01 A3002 RMK A01 T01231014  RH  038%=      5-min Rain = 0
KQU1 170639Z 28022G28KT 12/M01 A3002 RMK A01 T01231014  RH  039%=      5-min Rain = 0
KQU1 170640Z 29022KT 12/M01 A3002 RMK A01 T01231014  RH  039%=      5-min Rain = 0
KQU1 170641Z 29021G27KT 12/M01 A3002 RMK A01 T01231014  RH  039%=      5-min Rain = 0
KQU1 170642Z 29021G28KT 12/M01 A3002 RMK A01 T01221014  RH  039%=      5-min Rain = 0
KQU1 170643Z 28020G25KT 12/M01 A3002 RMK A01 T01221014  RH  039%=      5-min Rain = 0
KQU1 170644Z 29023G31KT 12/M01 A3002 RMK A01 T01221014  RH  039%=      5-min Rain = 0
KQU1 170645Z 29022G27KT 12/M01 A3002 RMK A01 T01221014  RH  039%=      5-min Rain = 0
KQU1 170646Z 29021KT 12/M01 A3002 RMK A01 T01221014  RH  039%=      5-min Rain = 0
KQU1 170647Z 29024G30KT 12/M01 A3002 RMK A01 T01221014  RH  039%=      5-min Rain = 0
KQU1 170648Z 28020G25KT 12/M01 A3002 RMK A01 T01231014  RH  039%=      5-min Rain = 0
KQU1 170649Z 29025G32KT 12/M01 A3002 RMK A01 T01221014  RH  039%=      5-min Rain = 0
KQU1 170650Z 29022G28KT 12/M01 A3002 RMK A01 T01231014  RH  039%=      5-min Rain = 0
KQU1 170651Z 29020G25KT 12/M01 A3002 RMK A01 T01221014  RH  039%=      5-min Rain = 0
KQU1 170652Z 29023G29KT 12/M01 A3002 RMK A01 T01221014  RH  039%=      5-min Rain = 0
KQU1 170653Z 29022G27KT 12/M01 A3002 RMK A01 T01221014  RH  039%=      5-min Rain = 0
KQU1 170654Z 29024G31KT 12/M01 A3002 RMK A01 T01221014  RH  039%=      5-min Rain = 0
KQU1 170655Z 29024G34KT 12/M01 A3002 RMK A01 T01221014  RH  039%=      5-min Rain = 0
KQU1 170656Z 29021G28KT 12/M01 A3002 RMK A01 T01231014  RH  039%=      5-min Rain = 0
KQU1 170657Z 29018KT 12/M01 A3002 RMK A01 T01221014  RH  039%=      5-min Rain = 0
KQU1 170658Z 29021G26KT 12/M01 A3002 RMK A01 T01211014  RH  039%=      5-min Rain = 0
KQU1 170659Z 29021KT 12/M01 A3002 RMK A01 T01221014  RH  039%=      5-min Rain = 0
KQU1 170700Z 29019G24KT 12/M01 A3002 RMK A01 T01211014  RH  039%=      5-min Rain = 0
KQU1 170701Z 29021KT 12/M01 A3002 RMK A01 T01211014  RH  039%=      5-min Rain = 0
KQU1 170702Z 29020G25KT 12/M01 A3002 RMK A01 T01211014  RH  039%=      5-min Rain = 0
KQU1 170703Z 29021G29KT 12/M01 A3002 RMK A01 T01211014  RH  039%=      5-min Rain = 0
KQU1 170704Z 29022KT 12/M01 A3002 RMK A01 T01211014  RH  039%=      5-min Rain = 0
KQU1 170705Z 29023KT 12/M01 A3002 RMK A01 T01221014  RH  039%=      5-min Rain = 0
KQU1 170706Z 28023G28KT 12/M01 A3002 RMK A01 T01221014  RH  039%=      5-min Rain = 0
KQU1 170707Z 29023G28KT 12/M01 A3002 RMK A01 T01221014  RH  039%=      5-min Rain = 0
KQU1 170708Z 29022G28KT 12/M01 A3002 RMK A01 T01231014  RH  039%=      5-min Rain = 0
KQU1 170709Z 29023G28KT 12/M02 A3002 RMK A01 T01231015  RH  038%=      5-min Rain = 0
KQU1 170710Z 29020G26KT 12/M02 A3002 RMK A01 T01221015  RH  039%=      5-min Rain = 0
KQU1 170711Z 29020G28KT 12/M01 A3002 RMK A01 T01221014  RH  039%=      5-min Rain = 0
KQU1 170712Z 29017G22KT 12/M01 A3002 RMK A01 T01221014  RH  039%=      5-min Rain = 0
KQU1 170713Z 29020G26KT 12/M01 A3002 RMK A01 T01211014  RH  039%=      5-min Rain = 0
KQU1 170714Z 29019G24KT 12/M01 A3002 RMK A01 T01211014  RH  039%=      5-min Rain = 0
KQU1 170715Z 30023G28KT 12/M01 A3002 RMK A01 T01211014  RH  039%=      5-min Rain = 0
KQU1 170716Z 29022G27KT 12/M01 A3002 RMK A01 T01211014  RH  039%=      5-min Rain = 0
KQU1 170717Z 29020G25KT 12/M02 A3003 RMK A01 T01221015  RH  039%=      5-min Rain = 0
KQU1 170718Z 29021G28KT 12/M02 A3002 RMK A01 T01211015  RH  039%=      5-min Rain = 0
KQU1 170719Z 30022G27KT 12/M02 A3002 RMK A01 T01211015  RH  039%=      5-min Rain = 0
KQU1 170720Z 30022KT 12/M02 A3002 RMK A01 T01221015  RH  039%=      5-min Rain = 0
KQU1 170721Z 29020G26KT 12/M02 A3002 RMK A01 T01221015  RH  039%=      5-min Rain = 0
KQU1 170722Z 29020G27KT 12/M02 A3002 RMK A01 T01221015  RH  039%=      5-min Rain = 0
KQU1 170723Z 30023G29KT 12/M02 A3002 RMK A01 T01211015  RH  039%=      5-min Rain = 0
KQU1 170724Z 30018KT 12/M02 A3002 RMK A01 T01211015  RH  039%=      5-min Rain = 0
KQU1 170725Z 30022KT 12/M02 A3002 RMK A01 T01211015  RH  039%=      5-min Rain = 0
KQU1 170726Z 29020KT 12/M02 A3002 RMK A01 T01211015  RH  039%=      5-min Rain = 0
KQU1 170727Z 30018KT 12/M02 A3002 RMK A01 T01201015  RH  039%=      5-min Rain = 0
KQU1 170728Z 30018G24KT 12/M01 A3002 RMK A01 T01201014  RH  039%=      5-min Rain = 0
KQU1 170729Z 30022KT 12/M01 A3002 RMK A01 T01201014  RH  039%=      5-min Rain = 0
KQU1 170730Z 30022KT 12/M01 A3002 RMK A01 T01201014  RH  039%=      5-min Rain = 0
KQU1 170731Z 30020G28KT 12/M02 A3002 RMK A01 T01211015  RH  039%=      5-min Rain = 0
KQU1 170732Z 30018G23KT 12/M02 A3002 RMK A01 T01211015  RH  039%=      5-min Rain = 0
KQU1 170733Z 30019G27KT 12/M02 A3002 RMK A01 T01201015  RH  039%=      5-min Rain = 0
KQU1 170734Z 30019G24KT 12/M02 A3002 RMK A01 T01201015  RH  039%=      5-min Rain = 0
KQU1 170735Z 30018G25KT 12/M02 A3002 RMK A01 T01201015  RH  039%=      5-min Rain = 0
KQU1 170736Z 30017G22KT 12/M01 A3002 RMK A01 T01191014  RH  039%=      5-min Rain = 0
KQU1 170737Z 31022KT 12/M01 A3002 RMK A01 T01191014  RH  039%=      5-min Rain = 0
KQU1 170738Z 31017G23KT 12/M02 A3002 RMK A01 T01191015  RH  039%=      5-min Rain = 0
KQU1 170739Z 30015KT 12/M02 A3002 RMK A01 T01181015  RH  040%=      5-min Rain = 0
KQU1 170740Z 31016KT 12/M02 A3002 RMK A01 T01181015  RH  040%=      5-min Rain = 0
KQU1 170741Z 31019G24KT 12/M01 A3002 RMK A01 T01181014  RH  040%=      5-min Rain = 0
KQU1 170742Z 31018G24KT 12/M02 A3002 RMK A01 T01181015  RH  040%=      5-min Rain = 0
KQU1 170743Z 31018KT 12/M02 A3002 RMK A01 T01181015  RH  040%=      5-min Rain = 0
KQU1 170744Z 31019KT 12/M02 A3002 RMK A01 T01181015  RH  040%=      5-min Rain = 0
KQU1 170745Z 31018KT 12/M02 A3002 RMK A01 T01191015  RH  039%=      5-min Rain = 0
KQU1 170746Z 31018KT 12/M02 A3002 RMK A01 T01191016  RH  039%=      5-min Rain = 0
KQU1 170747Z 31018KT 12/M02 A3002 RMK A01 T01201016  RH  039%=      5-min Rain = 0
KQU1 170748Z 31015KT 12/M02 A3002 RMK A01 T01201016  RH  039%=      5-min Rain = 0
KQU1 170749Z 31016KT 12/M02 A3002 RMK A01 T01201016  RH  039%=      5-min Rain = 0
KQU1 170750Z 31021G26KT 12/M02 A3002 RMK A01 T01211016  RH  039%=      5-min Rain = 0
KQU1 170751Z 30015KT 12/M02 A3002 RMK A01 T01211017  RH  038%=      5-min Rain = 0
KQU1 170752Z 31013KT 12/M02 A3002 RMK A01 T01201017  RH  039%=      5-min Rain = 0
KQU1 170753Z 31013KT 12/M02 A3003 RMK A01 T01201017  RH  039%=      5-min Rain = 0
KQU1 170754Z 30018KT 12/M02 A3003 RMK A01 T01201017  RH  038%=      5-min Rain = 0
KQU1 170755Z 31019G26KT 12/M02 A3002 RMK A01 T01221018  RH  038%=      5-min Rain = 0
KQU1 170756Z 30017G23KT 12/M02 A3002 RMK A01 T01221018  RH  038%=      5-min Rain = 0
KQU1 170757Z 30021G26KT 12/M02 A3002 RMK A01 T01231018  RH  037%=      5-min Rain = 0
KQU1 170758Z 30018G23KT 12/M02 A3002 RMK A01 T01241018  RH  037%=      5-min Rain = 0
KQU1 170759Z 30022G27KT 12/M02 A3002 RMK A01 T01241018  RH  037%=      5-min Rain = 0
KQU1 170800Z 30019G26KT 12/M02 A3002 RMK A01 T01241019  RH  037%=      5-min Rain = 0
KQU1 170801Z 30021G26KT 13/M02 A3002 RMK A01 T01251019  RH  037%=      5-min Rain = 0
KQU1 170802Z 30022G27KT 13/M02 A3002 RMK A01 T01251019  RH  037%=      5-min Rain = 0
KQU1 170803Z 29021KT 13/M02 A3002 RMK A01 T01251019  RH  037%=      5-min Rain = 0
KQU1 170804Z 29021G27KT 13/M02 A3002 RMK A01 T01251019  RH  037%=      5-min Rain = 0
KQU1 170805Z 29020G26KT 13/M02 A3002 RMK A01 T01251019  RH  037%=      5-min Rain = 0
KQU1 170806Z 29023KT 13/M02 A3002 RMK A01 T01251019  RH  037%=      5-min Rain = 0
KQU1 170807Z 29019KT 13/M02 A3002 RMK A01 T01251019  RH  037%=      5-min Rain = 0
KQU1 170808Z 30021G26KT 12/M02 A3002 RMK A01 T01231019  RH  037%=      5-min Rain = 0
KQU1 170809Z 29018G26KT 12/M02 A3002 RMK A01 T01241019  RH  037%=      5-min Rain = 0
KQU1 170810Z 30017G22KT 12/M02 A3002 RMK A01 T01231018  RH  037%=      5-min Rain = 0
KQU1 170811Z 31018KT 12/M02 A3003 RMK A01 T01221018  RH  038%=      5-min Rain = 0
KQU1 170812Z 30017G22KT 12/M02 A3003 RMK A01 T01211018  RH  038%=      5-min Rain = 0
KQU1 170813Z 30018G23KT 12/M02 A3003 RMK A01 T01211018  RH  038%=      5-min Rain = 0
KQU1 170814Z 30016G24KT 12/M02 A3003 RMK A01 T01201018  RH  038%=      5-min Rain = 0
KQU1 170815Z 30016KT 12/M02 A3003 RMK A01 T01201018  RH  038%=      5-min Rain = 0
KQU1 170816Z 31014KT 12/M02 A3003 RMK A01 T01211018  RH  038%=      5-min Rain = 0
KQU1 170817Z 30017KT 12/M02 A3004 RMK A01 T01201018  RH  038%=      5-min Rain = 0
KQU1 170818Z 31017KT 12/M02 A3004 RMK A01 T01211018  RH  038%=      5-min Rain = 0
KQU1 170819Z 30015G21KT 12/M02 A3004 RMK A01 T01211018  RH  038%=      5-min Rain = 0
KQU1 170820Z 31015G20KT 12/M02 A3004 RMK A01 T01201018  RH  038%=      5-min Rain = 0
KQU1 170821Z 30014KT 12/M02 A3004 RMK A01 T01201018  RH  038%=      5-min Rain = 0
KQU1 170822Z 31015KT 12/M02 A3004 RMK A01 T01191018  RH  039%=      5-min Rain = 0
KQU1 170823Z 31016KT 12/M02 A3004 RMK A01 T01201017  RH  039%=      5-min Rain = 0
KQU1 170824Z 31020KT 12/M02 A3004 RMK A01 T01201016  RH  039%=      5-min Rain = 0
KQU1 170825Z 32019G25KT 12/M02 A3004 RMK A01 T01211016  RH  039%=      5-min Rain = 0
KQU1 170826Z 31021KT 12/M02 A3004 RMK A01 T01211016  RH  038%=      5-min Rain = 0
KQU1 170827Z 32015KT 12/M02 A3004 RMK A01 T01211016  RH  039%=      5-min Rain = 0
KQU1 170828Z 32013KT 12/M02 A3004 RMK A01 T01201016  RH  039%=      5-min Rain = 0
KQU1 170829Z 32021G26KT 12/M02 A3004 RMK A01 T01191016  RH  039%=      5-min Rain = 0
KQU1 170830Z 31021G26KT 12/M02 A3004 RMK A01 T01191016  RH  039%=      5-min Rain = 0
KQU1 170831Z 32016G22KT 12/M02 A3004 RMK A01 T01191015  RH  039%=      5-min Rain = 0
KQU1 170832Z 32016KT 12/M02 A3005 RMK A01 T01181015  RH  040%=      5-min Rain = 0
KQU1 170833Z 32016KT 12/M01 A3005 RMK A01 T01171014  RH  040%=      5-min Rain = 0
KQU1 170834Z 31017G22KT 12/M01 A3005 RMK A01 T01171014  RH  040%=      5-min Rain = 0
KQU1 170835Z 31019KT 12/M01 A3005 RMK A01 T01161014  RH  040%=      5-min Rain = 0
KQU1 170836Z 31017G22KT 12/M01 A3005 RMK A01 T01161014  RH  041%=      5-min Rain = 0
KQU1 170837Z 31017KT 12/M01 A3005 RMK A01 T01151014  RH  041%=      5-min Rain = 0
KQU1 170838Z 30016G24KT 11/M01 A3005 RMK A01 T01141014  RH  041%=      5-min Rain = 0
KQU1 170839Z 30020KT 11/M01 A3005 RMK A01 T01141013  RH  041%=      5-min Rain = 0
KQU1 170840Z 30018KT 12/M01 A3005 RMK A01 T01151014  RH  041%=      5-min Rain = 0
KQU1 170841Z 30016KT 12/M01 A3005 RMK A01 T01151013  RH  041%=      5-min Rain = 0
KQU1 170842Z 30017KT 11/M01 A3005 RMK A01 T01141013  RH  041%=      5-min Rain = 0
KQU1 170843Z 30018G23KT 11/M01 A3005 RMK A01 T01141013  RH  041%=      5-min Rain = 0
KQU1 170844Z 30021KT 11/M01 A3005 RMK A01 T01141013  RH  041%=      5-min Rain = 0
KQU1 170845Z 30019KT 12/M01 A3005 RMK A01 T01151014  RH  041%=      5-min Rain = 0
KQU1 170846Z 30017G23KT 11/M01 A3005 RMK A01 T01141014  RH  041%=      5-min Rain = 0
KQU1 170847Z 30014G19KT 11/M01 A3005 RMK A01 T01141014  RH  041%=      5-min Rain = 0
KQU1 170848Z 30016KT 11/M01 A3005 RMK A01 T01131014  RH  041%=      5-min Rain = 0
KQU1 170849Z 30013KT 11/M01 A3006 RMK A01 T01131014  RH  041%=      5-min Rain = 0
KQU1 170850Z 31013G19KT 11/M01 A3006 RMK A01 T01131014  RH  041%=      5-min Rain = 0
KQU1 170851Z 31011KT 11/M01 A3006 RMK A01 T01131014  RH  041%=      5-min Rain = 0
KQU1 170852Z 32010KT 11/M01 A3006 RMK A01 T01121014  RH  042%=      5-min Rain = 0
KQU1 170853Z 33008KT 11/M01 A3006 RMK A01 T01121013  RH  042%=      5-min Rain = 0
KQU1 170854Z 32009G14KT 11/M01 A3007 RMK A01 T01121014  RH  042%=      5-min Rain = 0
KQU1 170855Z 32008KT 11/M01 A3007 RMK A01 T01111014  RH  042%=      5-min Rain = 0
KQU1 170856Z 32009KT 11/M01 A3007 RMK A01 T01111014  RH  042%=      5-min Rain = 0
KQU1 170857Z 32008KT 11/M01 A3007 RMK A01 T01121014  RH  042%=      5-min Rain = 0
KQU1 170858Z 32008KT 11/M01 A3007 RMK A01 T01121014  RH  041%=      5-min Rain = 0
KQU1 170859Z 32007KT 11/M02 A3007 RMK A01 T01121015  RH  041%=      5-min Rain = 0
KQU1 170900Z 31007KT 11/M02 A3008 RMK A01 T01121015  RH  041%=      5-min Rain = 0
KQU1 170901Z 32010KT 11/M02 A3008 RMK A01 T01131015  RH  041%=      5-min Rain = 0
KQU1 170902Z 29006KT 11/M02 A3008 RMK A01 T01131015  RH  041%=      5-min Rain = 0
KQU1 170903Z 30007KT 11/M02 A3008 RMK A01 T01131015  RH  041%=      5-min Rain = 0
KQU1 170904Z 30008KT 11/M01 A3008 RMK A01 T01121014  RH  042%=      5-min Rain = 0
KQU1 170905Z 29007KT 11/M01 A3008 RMK A01 T01111014  RH  042%=      5-min Rain = 0
KQU1 170906Z 29007KT 11/M01 A3008 RMK A01 T01101014  RH  042%=      5-min Rain = 0
KQU1 170907Z 29007KT 11/M01 A3008 RMK A01 T01091013  RH  043%=      5-min Rain = 0
KQU1 170908Z 30006KT 11/M01 A3008 RMK A01 T01081014  RH  043%=      5-min Rain = 0
KQU1 170909Z 30006KT 11/M01 A3008 RMK A01 T01071013  RH  043%=      5-min Rain = 0
KQU1 170910Z 30005KT 11/M01 A3008 RMK A01 T01061013  RH  043%=      5-min Rain = 0
KQU1 170911Z 31007KT 11/M01 A3008 RMK A01 T01051014  RH  044%=      5-min Rain = 0
KQU1 170912Z 32007KT 10/M01 A3008 RMK A01 T01041013  RH  044%=      5-min Rain = 0
KQU1 170913Z 32008KT 11/M01 A3008 RMK A01 T01051012  RH  044%=      5-min Rain = 0
KQU1 170914Z 32008KT 11/M01 A3008 RMK A01 T01051012  RH  044%=      5-min Rain = 0
KQU1 170915Z 32008KT 10/M01 A3008 RMK A01 T01041013  RH  044%=      5-min Rain = 0
KQU1 170916Z 31009KT 10/M01 A3008 RMK A01 T01031012  RH  045%=      5-min Rain = 0
KQU1 170917Z 30010KT 10/M01 A3008 RMK A01 T01021012  RH  045%=      5-min Rain = 0
KQU1 170918Z 30011KT 10/M01 A3008 RMK A01 T01011012  RH  045%=      5-min Rain = 0
KQU1 170919Z 31012KT 10/M01 A3008 RMK A01 T01011012  RH  046%=      5-min Rain = 0
KQU1 170920Z 31012KT 10/M01 A3008 RMK A01 T01001011  RH  046%=      5-min Rain = 0
KQU1 170921Z 31013KT 10/M01 A3008 RMK A01 T00991011  RH  046%=      5-min Rain = 0
KQU1 170922Z 31012KT 10/M01 A3008 RMK A01 T00981011  RH  047%=      5-min Rain = 0
KQU1 170923Z 31012KT 10/M01 A3007 RMK A01 T00981011  RH  047%=      5-min Rain = 0
KQU1 170924Z 31012KT 10/M01 A3008 RMK A01 T00981011  RH  047%=      5-min Rain = 0
KQU1 170925Z 31011KT 10/M01 A3008 RMK A01 T00981011  RH  047%=      5-min Rain = 0
KQU1 170926Z 32011KT 10/M01 A3008 RMK A01 T00981011  RH  047%=      5-min Rain = 0
KQU1 170927Z 31011KT 10/M01 A3008 RMK A01 T00971011  RH  047%=      5-min Rain = 0
KQU1 170928Z 31012G17KT 10/M01 A3008 RMK A01 T00961011  RH  047%=      5-min Rain = 0
KQU1 170929Z 32011KT 10/M01 A3008 RMK A01 T00971010  RH  047%=      5-min Rain = 0
KQU1 170930Z 31011G17KT 10/M01 A3008 RMK A01 T00961010  RH  047%=      5-min Rain = 0
KQU1 170931Z 31013KT 10/M01 A3008 RMK A01 T00961010  RH  047%=      5-min Rain = 0
KQU1 170932Z 31012KT 10/M01 A3008 RMK A01 T00971010  RH  047%=      5-min Rain = 0
KQU1 170933Z 31012KT 10/M01 A3008 RMK A01 T00971011  RH  047%=      5-min Rain = 0
KQU1 170934Z 31011KT 10/M01 A3008 RMK A01 T00971011  RH  047%=      5-min Rain = 0
KQU1 170935Z 31012KT 10/M01 A3008 RMK A01 T00961011  RH  047%=      5-min Rain = 0
KQU1 170936Z 31012KT 10/M01 A3008 RMK A01 T00961011  RH  047%=      5-min Rain = 0
KQU1 170937Z 31013KT 10/M01 A3008 RMK A01 T00961011  RH  047%=      5-min Rain = 0
KQU1 170938Z 30013KT 10/M01 A3008 RMK A01 T00961011  RH  047%=      5-min Rain = 0
KQU1 170939Z 30012KT 10/M01 A3008 RMK A01 T00951011  RH  047%=      5-min Rain = 0
KQU1 170940Z 30012KT 10/M01 A3008 RMK A01 T00951011  RH  047%=      5-min Rain = 0
KQU1 170941Z 30014KT 10/M01 A3008 RMK A01 T00951011  RH  048%=      5-min Rain = 0
KQU1 170942Z 30013KT 10/M01 A3008 RMK A01 T00961011  RH  047%=      5-min Rain = 0
KQU1 170943Z 30011KT 09/M01 A3008 RMK A01 T00941012  RH  048%=      5-min Rain = 0
KQU1 170944Z 30011KT 09/M01 A3008 RMK A01 T00931011  RH  048%=      5-min Rain = 0
KQU1 170945Z 30010KT 09/M01 A3008 RMK A01 T00921011  RH  048%=      5-min Rain = 0
KQU1 170946Z 30012KT 09/M01 A3008 RMK A01 T00921011  RH  048%=      5-min Rain = 0
KQU1 170947Z 30010KT 09/M01 A3008 RMK A01 T00921011  RH  048%=      5-min Rain = 0
KQU1 170948Z 30011KT 09/M01 A3008 RMK A01 T00911011  RH  049%=      5-min Rain = 0
KQU1 170949Z 30011KT 09/M01 A3008 RMK A01 T00911011  RH  049%=      5-min Rain = 0
KQU1 170950Z 30011KT 09/M01 A3008 RMK A01 T00911011  RH  049%=      5-min Rain = 0
KQU1 170951Z 30012KT 09/M01 A3008 RMK A01 T00911012  RH  049%=      5-min Rain = 0
KQU1 170952Z 30010KT 09/M01 A3009 RMK A01 T00911011  RH  049%=      5-min Rain = 0
KQU1 170953Z 30011KT 09/M01 A3009 RMK A01 T00901012  RH  049%=      5-min Rain = 0
KQU1 170954Z 30012KT 09/M01 A3009 RMK A01 T00891011  RH  049%=      5-min Rain = 0
KQU1 170955Z 30012KT 09/M01 A3009 RMK A01 T00891011  RH  049%=      5-min Rain = 0
KQU1 170956Z 30013KT 09/M01 A3009 RMK A01 T00891011  RH  049%=      5-min Rain = 0
KQU1 170957Z 30012KT 09/M01 A3009 RMK A01 T00891011  RH  049%=      5-min Rain = 0
KQU1 170958Z 31014KT 09/M01 A3009 RMK A01 T00891011  RH  049%=      5-min Rain = 0
KQU1 170959Z 30013KT 09/M01 A3009 RMK A01 T00891012  RH  049%=      5-min Rain = 0
KQU1 171000Z 30013KT 09/M01 A3009 RMK A01 T00881012  RH  050%=      5-min Rain = 0
KQU1 171001Z 30013KT 09/M01 A3009 RMK A01 T00871012  RH  050%=      5-min Rain = 0
KQU1 171002Z 30012KT 09/M01 A3009 RMK A01 T00871012  RH  050%=      5-min Rain = 0
KQU1 171003Z 30013KT 09/M01 A3009 RMK A01 T00861012  RH  050%=      5-min Rain = 0
KQU1 171004Z 30013KT 09/M01 A3009 RMK A01 T00861012  RH  050%=      5-min Rain = 0
KQU1 171005Z 29014KT 09/M01 A3009 RMK A01 T00861012  RH  050%=      5-min Rain = 0
KQU1 171006Z 29014KT 09/M01 A3009 RMK A01 T00861012  RH  050%=      5-min Rain = 0
KQU1 171007Z 29013KT 09/M01 A3009 RMK A01 T00851012  RH  050%=      5-min Rain = 0
KQU1 171008Z 29013KT 09/M01 A3009 RMK A01 T00851012  RH  051%=      5-min Rain = 0
KQU1 171009Z 29014KT 08/M01 A3009 RMK A01 T00841012  RH  051%=      5-min Rain = 0
KQU1 171010Z 29014KT 09/M01 A3009 RMK A01 T00851012  RH  051%=      5-min Rain = 0
KQU1 171011Z 30012KT 09/M01 A3009 RMK A01 T00851012  RH  051%=      5-min Rain = 0
KQU1 171012Z 29012KT 09/M01 A3009 RMK A01 T00851012  RH  051%=      5-min Rain = 0
KQU1 171013Z 30013KT 09/M01 A3009 RMK A01 T00851012  RH  050%=      5-min Rain = 0
KQU1 171014Z 30011KT 09/M01 A3009 RMK A01 T00851013  RH  050%=      5-min Rain = 0
KQU1 171015Z 29011KT 09/M01 A3009 RMK A01 T00851013  RH  050%=      5-min Rain = 0
KQU1 171016Z 29012KT 09/M01 A3009 RMK A01 T00851013  RH  050%=      5-min Rain = 0
KQU1 171017Z 29012KT 09/M01 A3009 RMK A01 T00851013  RH  050%=      5-min Rain = 0
KQU1 171018Z 30011KT 09/M01 A3009 RMK A01 T00851014  RH  050%=      5-min Rain = 0
KQU1 171019Z 30011KT 09/M01 A301 RMK A01 T00851014  RH  050%=      5-min Rain = 0
KQU1 171020Z 30011KT 08/M01 A301 RMK A01 T00841014  RH  050%=      5-min Rain = 0
KQU1 171021Z 30011KT 08/M01 A301 RMK A01 T00831014  RH  050%=      5-min Rain = 0
KQU1 171022Z 30010KT 08/M01 A301 RMK A01 T00831014  RH  050%=      5-min Rain = 0
KQU1 171023Z 30011KT 08/M01 A301 RMK A01 T00821014  RH  051%=      5-min Rain = 0
KQU1 171024Z 29010KT 08/M01 A301 RMK A01 T00821014  RH  051%=      5-min Rain = 0
KQU1 171025Z 30010KT 08/M01 A301 RMK A01 T00821014  RH  051%=      5-min Rain = 0
KQU1 171026Z 30010KT 08/M02 A301 RMK A01 T00811015  RH  051%=      5-min Rain = 0
KQU1 171027Z 30010KT 08/M02 A301 RMK A01 T00811015  RH  051%=      5-min Rain = 0
KQU1 171028Z 31010KT 08/M02 A301 RMK A01 T00811015  RH  051%=      5-min Rain = 0
KQU1 171029Z 32008KT 08/M02 A301 RMK A01 T00811015  RH  051%=      5-min Rain = 0
KQU1 171030Z 32007KT 08/M02 A301 RMK A01 T00801016  RH  051%=      5-min Rain = 0
KQU1 171031Z 31008KT 08/M02 A301 RMK A01 T00801016  RH  051%=      5-min Rain = 0
KQU1 171032Z 31008KT 08/M02 A301 RMK A01 T00791016  RH  051%=      5-min Rain = 0
KQU1 171033Z 30007KT 08/M02 A301 RMK A01 T00791016  RH  051%=      5-min Rain = 0
KQU1 171034Z 30009KT 08/M02 A301 RMK A01 T00781017  RH  051%=      5-min Rain = 0
KQU1 171035Z 30008KT 08/M02 A301 RMK A01 T00771016  RH  051%=      5-min Rain = 0
KQU1 171036Z 30007KT 08/M02 A301 RMK A01 T00771017  RH  051%=      5-min Rain = 0
KQU1 171037Z 31006KT 08/M02 A301 RMK A01 T00761017  RH  052%=      5-min Rain = 0
KQU1 171038Z 32006KT 08/M02 A301 RMK A01 T00761017  RH  052%=      5-min Rain = 0
KQU1 171039Z 32004KT 08/M02 A301 RMK A01 T00761017  RH  052%=      5-min Rain = 0
KQU1 171040Z 32003KT 08/M02 A301 RMK A01 T00761017  RH  052%=      5-min Rain = 0
KQU1 171041Z 06002KT 08/M02 A301 RMK A01 T00761015  RH  052%=      5-min Rain = 0
KQU1 171042Z 07002KT 08/M01 A301 RMK A01 T00761014  RH  053%=      5-min Rain = 0
KQU1 171043Z 08001KT 08/M01 A301 RMK A01 T00751014  RH  053%=      5-min Rain = 0
KQU1 171044Z 11001KT 07/M02 A301 RMK A01 T00731015  RH  054%=      5-min Rain = 0
KQU1 171045Z 07001KT 07/M02 A301 RMK A01 T00711015  RH  054%=      5-min Rain = 0
KQU1 171046Z 13001KT 07/M02 A301 RMK A01 T00701015  RH  055%=      5-min Rain = 0
KQU1 171047Z 17002KT 07/M02 A301 RMK A01 T00681016  RH  055%=      5-min Rain = 0
KQU1 171048Z 15002KT 07/M02 A301 RMK A01 T00661017  RH  055%=      5-min Rain = 0
KQU1 171049Z 14002KT 06/M02 A301 RMK A01 T00641018  RH  056%=      5-min Rain = 0
KQU1 171050Z 14002KT 06/M02 A301 RMK A01 T00631018  RH  056%=      5-min Rain = 0
KQU1 171051Z 14003KT 06/M02 A301 RMK A01 T00621018  RH  057%=      5-min Rain = 0
KQU1 171052Z 12003KT 06/M02 A301 RMK A01 T00601018  RH  057%=      5-min Rain = 0
KQU1 171053Z 12003KT 06/M02 A301 RMK A01 T00591017  RH  058%=      5-min Rain = 0
KQU1 171054Z 12004KT 06/M02 A301 RMK A01 T00581017  RH  058%=      5-min Rain = 0
KQU1 171055Z 12003KT 06/M02 A301 RMK A01 T00571018  RH  059%=      5-min Rain = 0
KQU1 171056Z 12004KT 06/M02 A301 RMK A01 T00551018  RH  059%=      5-min Rain = 0
KQU1 171057Z 12004KT 05/M02 A301 RMK A01 T00541017  RH  060%=      5-min Rain = 0
KQU1 171058Z 12003KT 05/M02 A301 RMK A01 T00531018  RH  060%=      5-min Rain = 0
KQU1 171059Z 11003KT 05/M02 A301 RMK A01 T00521018  RH  061%=      5-min Rain = 0
KQU1 171100Z 10003KT 05/M02 A301 RMK A01 T00501018  RH  061%=      5-min Rain = 0
KQU1 171101Z 10003KT 05/M02 A301 RMK A01 T00491019  RH  061%=      5-min Rain = 0
KQU1 171102Z 09003KT 05/M02 A301 RMK A01 T00471020  RH  062%=      5-min Rain = 0
KQU1 171103Z 09003KT 05/M02 A301 RMK A01 T00461017  RH  063%=      5-min Rain = 0
KQU1 171104Z 10003KT 05/M02 A301 RMK A01 T00451018  RH  064%=      5-min Rain = 0
KQU1 171105Z 10003KT 04/M02 A301 RMK A01 T00441019  RH  063%=      5-min Rain = 0
KQU1 171106Z 09003KT 04/M02 A301 RMK A01 T00431020  RH  064%=      5-min Rain = 0
KQU1 171107Z 09003KT 04/M02 A301 RMK A01 T00421020  RH  064%=      5-min Rain = 0
KQU1 171108Z 08003KT 04/M02 A301 RMK A01 T00411020  RH  064%=      5-min Rain = 0
KQU1 171109Z 07002KT 04/M02 A301 RMK A01 T00401021  RH  065%=      5-min Rain = 0
KQU1 171110Z 06001KT 04/M02 A301 RMK A01 T00391020  RH  065%=      5-min Rain = 0
KQU1 171111Z 05001KT 04/M02 A301 RMK A01 T00391019  RH  066%=      5-min Rain = 0
KQU1 171112Z 04001KT 04/M02 A301 RMK A01 T00381019  RH  066%=      5-min Rain = 0
KQU1 171113Z 01001KT 04/M02 A301 RMK A01 T00381018  RH  067%=      5-min Rain = 0
KQU1 171114Z 06001KT 04/M02 A301 RMK A01 T00371019  RH  067%=      5-min Rain = 0
KQU1 171115Z 34001KT 04/M02 A301 RMK A01 T00361019  RH  067%=      5-min Rain = 0
KQU1 171116Z 35002KT 04/M02 A301 RMK A01 T00351020  RH  067%=      5-min Rain = 0
KQU1 171117Z 01002KT 03/M02 A301 RMK A01 T00341021  RH  068%=      5-min Rain = 0
KQU1 171118Z 35003KT 03/M02 A301 RMK A01 T00321021  RH  068%=      5-min Rain = 0
KQU1 171119Z 35002KT 03/M02 A301 RMK A01 T00321018  RH  070%=      5-min Rain = 0
KQU1 171120Z 35002KT 03/M02 A301 RMK A01 T00331016  RH  070%=      5-min Rain = 0
KQU1 171121Z 33002KT 03/M02 A301 RMK A01 T00331019  RH  069%=      5-min Rain = 0
KQU1 171122Z 33002KT 03/M02 A301 RMK A01 T00321018  RH  070%=      5-min Rain = 0
KQU1 171123Z 33003KT 03/M02 A301 RMK A01 T00321019  RH  069%=      5-min Rain = 0
KQU1 171124Z 34003KT 03/M02 A301 RMK A01 T00311019  RH  070%=      5-min Rain = 0
KQU1 171125Z 32003KT 03/M02 A301 RMK A01 T00311019  RH  070%=      5-min Rain = 0
KQU1 171126Z 31003KT 03/M02 A301 RMK A01 T00301018  RH  070%=      5-min Rain = 0
KQU1 171127Z 31002KT 03/M01 A301 RMK A01 T00331013  RH  072%=      5-min Rain = 0
KQU1 171128Z 32002KT 04/M01 A301 RMK A01 T00361011  RH  071%=      5-min Rain = 0
KQU1 171129Z 30002KT 04/M01 A301 RMK A01 T00391011  RH  070%=      5-min Rain = 0
KQU1 171130Z 29002KT 04/M01 A301 RMK A01 T00401013  RH  069%=      5-min Rain = 0
KQU1 171131Z 30002KT 04/M01 A301 RMK A01 T00401013  RH  068%=      5-min Rain = 0
KQU1 171132Z 30001KT 04/M01 A301 RMK A01 T00411012  RH  069%=      5-min Rain = 0
KQU1 171133Z 30001KT 04/M01 A301 RMK A01 T00421011  RH  068%=      5-min Rain = 0
KQU1 171134Z 30000KT 04/M01 A301 RMK A01 T00431011  RH  068%=      5-min Rain = 0
KQU1 171135Z 00000KT 04/M01 A301 RMK A01 T00431011  RH  068%=      5-min Rain = 0
KQU1 171136Z 00000KT 04/M01 A301 RMK A01 T00431012  RH  067%=      5-min Rain = 0
KQU1 171137Z 00000KT 04/M01 A301 RMK A01 T00431012  RH  067%=      5-min Rain = 0
KQU1 171138Z 00000KT 04/M01 A301 RMK A01 T00441011  RH  067%=      5-min Rain = 0
KQU1 171139Z 00000KT 04/M01 A301 RMK A01 T00441013  RH  067%=      5-min Rain = 0
KQU1 171140Z 33000KT 04/M01 A301 RMK A01 T00431013  RH  067%=      5-min Rain = 0
KQU1 171141Z 33000KT 04/M01 A301 RMK A01 T00421014  RH  067%=      5-min Rain = 0
KQU1 171142Z 00000KT 04/M01 A301 RMK A01 T00411014  RH  068%=      5-min Rain = 0
KQU1 171143Z 33000KT 04/M01 A301 RMK A01 T00401014  RH  068%=      5-min Rain = 0
KQU1 171144Z 34001KT 04/M02 A301 RMK A01 T00401015  RH  067%=      5-min Rain = 0
KQU1 171145Z 35002KT 04/M02 A301 RMK A01 T00391017  RH  067%=      5-min Rain = 0
KQU1 171146Z 36003KT 04/M02 A301 RMK A01 T00371017  RH  068%=      5-min Rain = 0
KQU1 171147Z 35002KT 04/M02 A301 RMK A01 T00361017  RH  068%=      5-min Rain = 0
KQU1 171148Z 34003KT 04/M02 A301 RMK A01 T00361017  RH  069%=      5-min Rain = 0
KQU1 171149Z 33003KT 04/M02 A301 RMK A01 T00351017  RH  069%=      5-min Rain = 0
KQU1 171150Z 33004KT 04/M02 A301 RMK A01 T00351015  RH  070%=      5-min Rain = 0
KQU1 171151Z 33004KT 04/M02 A301 RMK A01 T00351016  RH  069%=      5-min Rain = 0
KQU1 171152Z 33004KT 04/M02 A301 RMK A01 T00361015  RH  069%=      5-min Rain = 0
KQU1 171153Z 32004KT 04/M02 A301 RMK A01 T00371016  RH  068%=      5-min Rain = 0
KQU1 171154Z 32004KT 04/M02 A301 RMK A01 T00361017  RH  068%=      5-min Rain = 0
KQU1 171155Z 32004KT 04/M02 A301 RMK A01 T00371016  RH  068%=      5-min Rain = 0
KQU1 171156Z 32004KT 04/M02 A301 RMK A01 T00391015  RH  068%=      5-min Rain = 0
KQU1 171157Z 31005KT 04/M02 A301 RMK A01 T00421015  RH  067%=      5-min Rain = 0
KQU1 171158Z 30006KT 05/M02 A301 RMK A01 T00451015  RH  065%=      5-min Rain = 0
KQU1 171159Z 30006KT 05/M02 A301 RMK A01 T00471015  RH  064%=      5-min Rain = 0
KQU1 171200Z 31006KT 05/M02 A301 RMK A01 T00491016  RH  063%=      5-min Rain = 0
KQU1 171201Z 31006KT 05/M02 A301 RMK A01 T00511016  RH  062%=      5-min Rain = 0
KQU1 171202Z 31006KT 05/M02 A301 RMK A01 T00521017  RH  061%=      5-min Rain = 0
KQU1 171203Z 31005KT 05/M02 A301 RMK A01 T00531017  RH  060%=      5-min Rain = 0
KQU1 171204Z 31005KT 05/M02 A301 RMK A01 T00541018  RH  060%=      5-min Rain = 0
KQU1 171205Z 30005KT 06/M02 A301 RMK A01 T00551017  RH  060%=      5-min Rain = 0
KQU1 171206Z 30005KT 06/M02 A301 RMK A01 T00551017  RH  059%=      5-min Rain = 0
KQU1 171207Z 30005KT 06/M02 A301 RMK A01 T00561018  RH  059%=      5-min Rain = 0
KQU1 171208Z 30005KT 06/M02 A301 RMK A01 T00551018  RH  059%=      5-min Rain = 0
KQU1 171209Z 30005KT 06/M02 A301 RMK A01 T00551018  RH  059%=      5-min Rain = 0
KQU1 171210Z 30005KT 06/M02 A301 RMK A01 T00551018  RH  059%=      5-min Rain = 0
KQU1 171211Z 29004KT 06/M02 A301 RMK A01 T00551018  RH  059%=      5-min Rain = 0
KQU1 171212Z 29004KT 06/M02 A301 RMK A01 T00551018  RH  059%=      5-min Rain = 0
KQU1 171213Z 30002KT 06/M02 A3011 RMK A01 T00551018  RH  059%=      5-min Rain = 0
KQU1 171214Z 31001KT 06/M02 A3011 RMK A01 T00551021  RH  058%=      5-min Rain = 0
KQU1 171215Z 15004KT 05/M03 A3011 RMK A01 T00511025  RH  058%=      5-min Rain = 0
KQU1 171216Z 15004KT 05/M03 A3011 RMK A01 T00451028  RH  059%=      5-min Rain = 0
KQU1 171217Z 15003KT 04/M03 A3011 RMK A01 T00381030  RH  061%=      5-min Rain = 0
KQU1 171218Z 15002KT 03/M03 A3011 RMK A01 T00331032  RH  063%=      5-min Rain = 0
KQU1 171219Z 18000KT 03/M03 A3011 RMK A01 T00291032  RH  064%=      5-min Rain = 0
KQU1 171220Z 21001KT 03/M03 A3011 RMK A01 T00251032  RH  066%=      5-min Rain = 0
KQU1 171221Z 23000KT 02/M03 A3011 RMK A01 T00221030  RH  069%=      5-min Rain = 0
KQU1 171222Z 25001KT 02/M03 A3011 RMK A01 T00211029  RH  069%=      5-min Rain = 0
KQU1 171223Z 27001KT 02/M03 A3011 RMK A01 T00201028  RH  070%=      5-min Rain = 0
KQU1 171224Z 30001KT 02/M03 A3011 RMK A01 T00201026  RH  071%=      5-min Rain = 0
KQU1 171225Z 30002KT 02/M02 A3011 RMK A01 T00221024  RH  072%=      5-min Rain = 0
KQU1 171226Z 29002KT 03/M02 A3011 RMK A01 T00251021  RH  072%=      5-min Rain = 0
KQU1 171227Z 30003KT 03/M02 A3011 RMK A01 T00301019  RH  071%=      5-min Rain = 0
KQU1 171228Z 30003KT 03/M02 A3011 RMK A01 T00331018  RH  069%=      5-min Rain = 0
KQU1 171229Z 30004KT 04/M02 A3011 RMK A01 T00371017  RH  068%=      5-min Rain = 0
KQU1 171230Z 29004KT 04/M02 A3011 RMK A01 T00401017  RH  066%=      5-min Rain = 0
KQU1 171231Z 29006KT 04/M02 A3011 RMK A01 T00421018  RH  065%=      5-min Rain = 0
KQU1 171232Z 29006KT 04/M02 A3011 RMK A01 T00431019  RH  064%=      5-min Rain = 0
KQU1 171233Z 30007KT 04/M02 A3011 RMK A01 T00431020  RH  064%=      5-min Rain = 0
KQU1 171234Z 30007KT 04/M02 A3011 RMK A01 T00431021  RH  063%=      5-min Rain = 0
KQU1 171235Z 29006KT 04/M02 A3011 RMK A01 T00421021  RH  064%=      5-min Rain = 0
KQU1 171236Z 29003KT 04/M02 A3011 RMK A01 T00411020  RH  064%=      5-min Rain = 0
KQU1 171237Z 00001KT 04/M02 A3011 RMK A01 T00401019  RH  066%=      5-min Rain = 0
KQU1 171238Z 05002KT 04/M02 A3012 RMK A01 T00391020  RH  065%=      5-min Rain = 0
KQU1 171239Z 09004KT 04/M02 A3012 RMK A01 T00361022  RH  065%=      5-min Rain = 0
KQU1 171240Z 12006KT 03/M02 A3012 RMK A01 T00331020  RH  068%=      5-min Rain = 0
KQU1 171241Z 11005KT 03/M02 A3012 RMK A01 T00321018  RH  070%=      5-min Rain = 0
KQU1 171242Z 09004KT 03/M02 A3012 RMK A01 T00311018  RH  070%=      5-min Rain = 0
KQU1 171243Z 12004KT 03/M02 A3012 RMK A01 T00301018  RH  071%=      5-min Rain = 0
KQU1 171244Z 11003KT 03/M02 A3012 RMK A01 T00281019  RH  071%=      5-min Rain = 0
KQU1 171245Z 16002KT 03/M02 A3012 RMK A01 T00281019  RH  071%=      5-min Rain = 0
KQU1 171246Z 14004KT 03/M02 A3012 RMK A01 T00271021  RH  071%=      5-min Rain = 0
KQU1 171247Z 14003KT 03/M02 A3012 RMK A01 T00251023  RH  071%=      5-min Rain = 0
KQU1 171248Z 14003KT 02/M02 A3012 RMK A01 T00221024  RH  071%=      5-min Rain = 0
KQU1 171249Z 15003KT 02/M03 A3012 RMK A01 T00201025  RH  072%=      5-min Rain = 0
KQU1 171250Z 17003KT 02/M03 A3012 RMK A01 T00181026  RH  073%=      5-min Rain = 0
KQU1 171251Z 17003KT 02/M03 A3012 RMK A01 T00161026  RH  074%=      5-min Rain = 0
KQU1 171252Z 15003KT 02/M03 A3013 RMK A01 T00151026  RH  074%=      5-min Rain = 0
KQU1 171253Z 16003KT 02/M03 A3013 RMK A01 T00151026  RH  074%=      5-min Rain = 0
KQU1 171254Z 17003KT 02/M03 A3013 RMK A01 T00151025  RH  075%=      5-min Rain = 0
KQU1 171255Z 19002KT 02/M02 A3013 RMK A01 T00151024  RH  075%=      5-min Rain = 0
KQU1 171256Z 21002KT 02/M02 A3013 RMK A01 T00151024  RH  075%=      5-min Rain = 0
KQU1 171257Z 23001KT 02/M02 A3013 RMK A01 T00161023  RH  075%=      5-min Rain = 0
KQU1 171258Z 25002KT 02/M02 A3013 RMK A01 T00171023  RH  075%=      5-min Rain = 0
KQU1 171259Z 25002KT 02/M02 A3013 RMK A01 T00191019  RH  076%=      5-min Rain = 0
KQU1 171300Z 27002KT 02/M02 A3013 RMK A01 T00231018  RH  074%=      5-min Rain = 0
KQU1 171301Z 28002KT 02/M02 A3013 RMK A01 T00241019  RH  073%=      5-min Rain = 0
KQU1 171302Z 28001KT 03/M02 A3013 RMK A01 T00261019  RH  072%=      5-min Rain = 0
KQU1 171303Z 28001KT 03/M02 A3013 RMK A01 T00251023  RH  071%=      5-min Rain = 0
KQU1 171304Z 28001KT 02/M02 A3013 RMK A01 T00241023  RH  071%=      5-min Rain = 0
KQU1 171305Z 28001KT 02/M02 A3013 RMK A01 T00231023  RH  072%=      5-min Rain = 0
KQU1 171306Z 30000KT 02/M02 A3013 RMK A01 T00231023  RH  072%=      5-min Rain = 0
KQU1 171307Z 32000KT 02/M02 A3013 RMK A01 T00221023  RH  072%=      5-min Rain = 0
KQU1 171308Z 00000KT 02/M02 A3013 RMK A01 T00221021  RH  073%=      5-min Rain = 0
KQU1 171309Z 36000KT 02/M02 A3014 RMK A01 T00231020  RH  073%=      5-min Rain = 0
KQU1 171310Z 10001KT 02/M02 A3014 RMK A01 T00231020  RH  073%=      5-min Rain = 0
KQU1 171311Z 11003KT 02/M02 A3014 RMK A01 T00231019  RH  074%=      5-min Rain = 0
KQU1 171312Z 12005KT 02/M02 A3014 RMK A01 T00231021  RH  073%=      5-min Rain = 0
KQU1 171313Z 13007KT 02/M02 A3014 RMK A01 T00221023  RH  072%=      5-min Rain = 0
KQU1 171314Z 14007KT 02/M03 A3014 RMK A01 T00191026  RH  072%=      5-min Rain = 0
KQU1 171315Z 14008KT 02/M03 A3014 RMK A01 T00171028  RH  072%=      5-min Rain = 0
KQU1 171316Z 15008KT 01/M03 A3014 RMK A01 T00141029  RH  073%=      5-min Rain = 0
KQU1 171317Z 16008KT 01/M03 A3015 RMK A01 T00121029  RH  074%=      5-min Rain = 0
KQU1 171318Z 17008KT 01/M03 A3015 RMK A01 T00101027  RH  076%=      5-min Rain = 0
KQU1 171319Z 17007KT 01/M03 A3015 RMK A01 T00101026  RH  077%=      5-min Rain = 0
KQU1 171320Z 18007KT 01/M03 A3015 RMK A01 T00101025  RH  077%=      5-min Rain = 0
KQU1 171321Z 18006KT 01/M02 A3015 RMK A01 T00111024  RH  078%=      5-min Rain = 0
KQU1 171322Z 19006KT 01/M02 A3015 RMK A01 T00131022  RH  077%=      5-min Rain = 0
KQU1 171323Z 20006KT 01/M02 A3015 RMK A01 T00141022  RH  076%=      5-min Rain = 0
KQU1 171324Z 22006KT 02/M02 A3015 RMK A01 T00161022  RH  076%=      5-min Rain = 0
KQU1 171325Z 23006KT 02/M02 A3015 RMK A01 T00181020  RH  076%=      5-min Rain = 0
KQU1 171326Z 24006KT 02/M02 A3015 RMK A01 T00211019  RH  075%=      5-min Rain = 0
KQU1 171327Z 24006KT 02/M02 A3015 RMK A01 T00231018  RH  074%=      5-min Rain = 0
KQU1 171328Z 25007KT 03/M02 A3015 RMK A01 T00261018  RH  072%=      5-min Rain = 0
KQU1 171329Z 25008KT 03/M02 A3015 RMK A01 T00271020  RH  071%=      5-min Rain = 0
KQU1 171330Z 25009KT 03/M02 A3015 RMK A01 T00271021  RH  071%=      5-min Rain = 0
KQU1 171331Z 25009KT 03/M02 A3015 RMK A01 T00271021  RH  071%=      5-min Rain = 0
KQU1 171332Z 25010KT 03/M02 A3015 RMK A01 T00281020  RH  071%=      5-min Rain = 0
KQU1 171333Z 26010KT 03/M02 A3015 RMK A01 T00301018  RH  071%=      5-min Rain = 0
KQU1 171334Z 26009KT 03/M02 A3015 RMK A01 T00331017  RH  070%=      5-min Rain = 0
KQU1 171335Z 27009KT 04/M02 A3015 RMK A01 T00361017  RH  068%=      5-min Rain = 0
KQU1 171336Z 27009KT 04/M02 A3015 RMK A01 T00381018  RH  067%=      5-min Rain = 0
KQU1 171337Z 27009KT 04/M02 A3015 RMK A01 T00401018  RH  066%=      5-min Rain = 0
KQU1 171338Z 27009KT 04/M02 A3015 RMK A01 T00411018  RH  065%=      5-min Rain = 0
KQU1 171339Z 27009KT 04/M02 A3015 RMK A01 T00441018  RH  064%=      5-min Rain = 0
KQU1 171340Z 27009KT 05/M02 A3015 RMK A01 T00461018  RH  063%=      5-min Rain = 0
KQU1 171341Z 27008KT 05/M02 A3015 RMK A01 T00481018  RH  062%=      5-min Rain = 0
KQU1 171342Z 26008KT 05/M02 A3015 RMK A01 T00491019  RH  062%=      5-min Rain = 0
KQU1 171343Z 26009KT 05/M02 A3015 RMK A01 T00491020  RH  061%=      5-min Rain = 0
KQU1 171344Z 26009KT 05/M02 A3016 RMK A01 T00501020  RH  061%=      5-min Rain = 0
KQU1 171345Z 25007KT 05/M02 A3016 RMK A01 T00501021  RH  060%=      5-min Rain = 0
KQU1 171346Z 25007KT 05/M02 A3016 RMK A01 T00491022  RH  060%=      5-min Rain = 0
KQU1 171347Z 26008KT 05/M02 A3016 RMK A01 T00471023  RH  060%=      5-min Rain = 0
KQU1 171348Z 25006KT 05/M02 A3016 RMK A01 T00461023  RH  061%=      5-min Rain = 0
KQU1 171349Z 25006KT 05/M02 A3016 RMK A01 T00451023  RH  061%=      5-min Rain = 0
KQU1 171350Z 25006KT 04/M02 A3016 RMK A01 T00441024  RH  061%=      5-min Rain = 0
KQU1 171351Z 27006KT 04/M02 A3016 RMK A01 T00431024  RH  062%=      5-min Rain = 0
KQU1 171352Z 27005KT 04/M02 A3016 RMK A01 T00421024  RH  062%=      5-min Rain = 0
KQU1 171353Z 28006KT 04/M02 A3016 RMK A01 T00421023  RH  062%=      5-min Rain = 0
KQU1 171354Z 28005KT 04/M02 A3016 RMK A01 T00441022  RH  062%=      5-min Rain = 0
KQU1 171355Z 35003KT 04/M02 A3016 RMK A01 T00441022  RH  062%=      5-min Rain = 0
KQU1 171356Z 30004KT 05/M02 A3016 RMK A01 T00451022  RH  062%=      5-min Rain = 0
KQU1 171357Z 29006KT 05/M02 A3016 RMK A01 T00451023  RH  062%=      5-min Rain = 0
KQU1 171358Z 29008KT 04/M02 A3016 RMK A01 T00441023  RH  062%=      5-min Rain = 0
KQU1 171359Z 29008KT 04/M02 A3016 RMK A01 T00431023  RH  062%=      5-min Rain = 0
KQU1 171400Z 28008KT 04/M02 A3016 RMK A01 T00431023  RH  062%=      5-min Rain = 0
KQU1 171401Z 28008KT 04/M02 A3016 RMK A01 T00431023  RH  062%=      5-min Rain = 0
KQU1 171402Z 28007KT 04/M02 A3016 RMK A01 T00431023  RH  062%=      5-min Rain = 0
KQU1 171403Z 26006KT 04/M02 A3016 RMK A01 T00431023  RH  062%=      5-min Rain = 0
KQU1 171404Z 27005KT 04/M02 A3016 RMK A01 T00441022  RH  062%=      5-min Rain = 0
KQU1 171405Z 28006KT 04/M02 A3016 RMK A01 T00441022  RH  062%=      5-min Rain = 0
KQU1 171406Z 28006KT 05/M02 A3016 RMK A01 T00451022  RH  062%=      5-min Rain = 0
KQU1 171407Z 28006KT 04/M02 A3016 RMK A01 T00441023  RH  062%=      5-min Rain = 0
KQU1 171408Z 28006KT 04/M02 A3016 RMK A01 T00441022  RH  062%=      5-min Rain = 0
KQU1 171409Z 27005KT 05/M02 A3016 RMK A01 T00451022  RH  062%=      5-min Rain = 0
KQU1 171410Z 26006KT 05/M02 A3016 RMK A01 T00451022  RH  062%=      5-min Rain = 0
KQU1 171411Z 27006KT 05/M02 A3016 RMK A01 T00461021  RH  062%=      5-min Rain = 0
KQU1 171412Z 28006KT 05/M02 A3016 RMK A01 T00471021  RH  062%=      5-min Rain = 0
KQU1 171413Z 27005KT 05/M02 A3017 RMK A01 T00471021  RH  061%=      5-min Rain = 0
KQU1 171414Z 27006KT 05/M02 A3017 RMK A01 T00471021  RH  061%=      5-min Rain = 0
KQU1 171415Z 28006KT 05/M02 A3017 RMK A01 T00491020  RH  061%=      5-min Rain = 0
KQU1 171416Z 27006KT 05/M02 A3017 RMK A01 T00501020  RH  061%=      5-min Rain = 0
KQU1 171417Z 28005KT 05/M02 A3017 RMK A01 T00511020  RH  060%=      5-min Rain = 0
KQU1 171418Z 27006KT 05/M02 A3017 RMK A01 T00511020  RH  060%=      5-min Rain = 0
KQU1 171419Z 28007KT 05/M02 A3017 RMK A01 T00521020  RH  059%=      5-min Rain = 0
KQU1 171420Z 27006KT 05/M02 A3017 RMK A01 T00531020  RH  059%=      5-min Rain = 0
KQU1 171421Z 28006KT 05/M02 A3017 RMK A01 T00541020  RH  059%=      5-min Rain = 0
KQU1 171422Z 28006KT 05/M02 A3017 RMK A01 T00541020  RH  059%=      5-min Rain = 0
KQU1 171423Z 28006KT 05/M02 A3017 RMK A01 T00541020  RH  059%=      5-min Rain = 0
KQU1 171424Z 28006KT 05/M02 A3017 RMK A01 T00541020  RH  059%=      5-min Rain = 0
KQU1 171425Z 28006KT 05/M02 A3017 RMK A01 T00541020  RH  059%=      5-min Rain = 0
KQU1 171426Z 28007KT 05/M02 A3017 RMK A01 T00541021  RH  059%=      5-min Rain = 0
KQU1 171427Z 28009KT 05/M02 A3017 RMK A01 T00541020  RH  059%=      5-min Rain = 0
KQU1 171428Z 28008KT 06/M02 A3017 RMK A01 T00551020  RH  058%=      5-min Rain = 0
KQU1 171429Z 29008KT 06/M02 A3017 RMK A01 T00551020  RH  058%=      5-min Rain = 0
KQU1 171430Z 28008KT 06/M02 A3017 RMK A01 T00551020  RH  059%=      5-min Rain = 0
KQU1 171431Z 29008KT 05/M02 A3017 RMK A01 T00541020  RH  059%=      5-min Rain = 0
KQU1 171432Z 28009KT 05/M02 A3017 RMK A01 T00541020  RH  059%=      5-min Rain = 0
KQU1 171433Z 29009KT 05/M02 A3017 RMK A01 T00521021  RH  059%=      5-min Rain = 0
KQU1 171434Z 28010KT 05/M02 A3017 RMK A01 T00511021  RH  060%=      5-min Rain = 0
KQU1 171435Z 28009KT 05/M02 A3017 RMK A01 T00511021  RH  060%=      5-min Rain = 0
KQU1 171436Z 28010KT 05/M02 A3017 RMK A01 T00501021  RH  060%=      5-min Rain = 0
KQU1 171437Z 28009KT 05/M02 A3017 RMK A01 T00501020  RH  060%=      5-min Rain = 0
KQU1 171438Z 28011KT 05/M02 A3017 RMK A01 T00501020  RH  060%=      5-min Rain = 0
KQU1 171439Z 28010KT 05/M02 A3017 RMK A01 T00511020  RH  060%=      5-min Rain = 0
KQU1 171440Z 28010KT 05/M02 A3017 RMK A01 T00511020  RH  060%=      5-min Rain = 0
KQU1 171441Z 29009KT 05/M02 A3017 RMK A01 T00511020  RH  060%=      5-min Rain = 0
KQU1 171442Z 29010KT 05/M02 A3017 RMK A01 T00511020  RH  060%=      5-min Rain = 0
KQU1 171443Z 29010KT 05/M02 A3017 RMK A01 T00511020  RH  060%=      5-min Rain = 0
KQU1 171444Z 29010KT 05/M02 A3017 RMK A01 T00501020  RH  061%=      5-min Rain = 0
KQU1 171445Z 29011KT 05/M02 A3017 RMK A01 T00501019  RH  061%=      5-min Rain = 0
KQU1 171446Z 28012KT 05/M02 A3017 RMK A01 T00501019  RH  061%=      5-min Rain = 0
KQU1 171447Z 28012KT 05/M02 A3017 RMK A01 T00501019  RH  061%=      5-min Rain = 0
KQU1 171448Z 29013KT 05/M02 A3017 RMK A01 T00501018  RH  061%=      5-min Rain = 0
KQU1 171449Z 29013KT 05/M02 A3017 RMK A01 T00511018  RH  061%=      5-min Rain = 0
KQU1 171450Z 29012KT 05/M02 A3017 RMK A01 T00521017  RH  061%=      5-min Rain = 0
KQU1 171451Z 29012KT 05/M02 A3017 RMK A01 T00531017  RH  061%=      5-min Rain = 0
KQU1 171452Z 29012KT 05/M02 A3017 RMK A01 T00541016  RH  060%=      5-min Rain = 0
KQU1 171453Z 28012KT 06/M02 A3017 RMK A01 T00551016  RH  060%=      5-min Rain = 0
KQU1 171454Z 28011KT 06/M02 A3017 RMK A01 T00571015  RH  060%=      5-min Rain = 0
KQU1 171455Z 28011KT 06/M02 A3017 RMK A01 T00591015  RH  059%=      5-min Rain = 0
KQU1 171456Z 27010KT 06/M02 A3017 RMK A01 T00601015  RH  059%=      5-min Rain = 0
KQU1 171457Z 27012KT 06/M02 A3017 RMK A01 T00611015  RH  058%=      5-min Rain = 0
KQU1 171458Z 28014KT 06/M02 A3017 RMK A01 T00621016  RH  057%=      5-min Rain = 0
KQU1 171459Z 28014KT 06/M02 A3017 RMK A01 T00621016  RH  058%=      5-min Rain = 0
KQU1 171500Z 27013KT 06/M02 A3017 RMK A01 T00621015  RH  058%=      5-min Rain = 0
KQU1 171501Z 27012KT 06/M02 A3017 RMK A01 T00631015  RH  058%=      5-min Rain = 0
KQU1 171502Z 27012KT 06/M02 A3017 RMK A01 T00631015  RH  058%=      5-min Rain = 0
KQU1 171503Z 27012KT 06/M01 A3017 RMK A01 T00631014  RH  058%=      5-min Rain = 0
KQU1 171504Z 27012KT 06/M02 A3017 RMK A01 T00641015  RH  057%=      5-min Rain = 0
KQU1 171505Z 28012KT 06/M01 A3017 RMK A01 T00641014  RH  057%=      5-min Rain = 0
KQU1 171506Z 28011KT 06/M01 A3017 RMK A01 T00641014  RH  057%=      5-min Rain = 0
KQU1 171507Z 28011KT 07/M01 A3017 RMK A01 T00651014  RH  057%=      5-min Rain = 0
KQU1 171508Z 28011KT 07/M01 A3017 RMK A01 T00661014  RH  057%=      5-min Rain = 0
KQU1 171509Z 28011KT 07/M01 A3017 RMK A01 T00661013  RH  057%=      5-min Rain = 0
KQU1 171510Z 28009KT 07/M01 A3017 RMK A01 T00671012  RH  057%=      5-min Rain = 0
KQU1 171511Z 28010KT 07/M01 A3017 RMK A01 T00691011  RH  057%=      5-min Rain = 0
KQU1 171512Z 28010KT 07/M01 A3017 RMK A01 T00701012  RH  056%=      5-min Rain = 0
KQU1 171513Z 28011KT 07/M01 A3017 RMK A01 T00711012  RH  055%=      5-min Rain = 0
KQU1 171514Z 28011KT 07/M01 A3017 RMK A01 T00721012  RH  055%=      5-min Rain = 0
KQU1 171515Z 28012KT 07/M01 A3017 RMK A01 T00731013  RH  054%=      5-min Rain = 0
KQU1 171516Z 28010KT 07/M01 A3017 RMK A01 T00731013  RH  054%=      5-min Rain = 0
KQU1 171517Z 29009KT 07/M01 A3017 RMK A01 T00741012  RH  055%=      5-min Rain = 0
KQU1 171518Z 29009KT 08/M01 A3017 RMK A01 T00751011  RH  054%=      5-min Rain = 0
KQU1 171519Z 29009KT 08/M01 A3017 RMK A01 T00761011  RH  054%=      5-min Rain = 0
KQU1 171520Z 30009KT 08/M01 A3017 RMK A01 T00771011  RH  054%=      5-min Rain = 0
KQU1 171521Z 30011KT 08/M01 A3017 RMK A01 T00771012  RH  053%=      5-min Rain = 0
KQU1 171522Z 30011KT 08/M01 A3017 RMK A01 T00771012  RH  053%=      5-min Rain = 0
KQU1 171523Z 29011KT 08/M01 A3017 RMK A01 T00771011  RH  054%=      5-min Rain = 0
KQU1 171524Z 29011KT 08/M01 A3017 RMK A01 T00771011  RH  054%=      5-min Rain = 0
KQU1 171525Z 29010KT 08/M01 A3017 RMK A01 T00781010  RH  054%=      5-min Rain = 0
KQU1 171526Z 28008KT 08/M01 A3017 RMK A01 T00791010  RH  054%=      5-min Rain = 0
KQU1 171527Z 28008KT 08/M01 A3017 RMK A01 T00801008  RH  054%=      5-min Rain = 0
KQU1 171528Z 27007KT 08/M01 A3017 RMK A01 T00821007  RH  053%=      5-min Rain = 0
KQU1 171529Z 27008KT 08/M01 A3017 RMK A01 T00841010  RH  052%=      5-min Rain = 0
KQU1 171530Z 27008KT 09/M01 A3018 RMK A01 T00851009  RH  052%=      5-min Rain = 0
KQU1 171531Z 27009KT 09/M01 A3018 RMK A01 T00861011  RH  050%=      5-min Rain = 0
KQU1 171532Z 27009KT 09/M01 A3018 RMK A01 T00871011  RH  050%=      5-min Rain = 0
KQU1 171533Z 28009KT 09/M01 A3018 RMK A01 T00881011  RH  050%=      5-min Rain = 0
KQU1 171534Z 28009KT 09/M01 A3018 RMK A01 T00881011  RH  050%=      5-min Rain = 0
KQU1 171535Z 28009KT 09/M01 A3018 RMK A01 T00881012  RH  050%=      5-min Rain = 0
KQU1 171536Z 28008KT 09/M01 A3018 RMK A01 T00891010  RH  050%=      5-min Rain = 0
KQU1 171537Z 29008KT 09/M01 A3018 RMK A01 T00901009  RH  050%=      5-min Rain = 0
KQU1 171538Z 29008KT 09/M01 A3018 RMK A01 T00911009  RH  049%=      5-min Rain = 0
KQU1 171539Z 30008KT 09/M01 A3018 RMK A01 T00921009  RH  049%=      5-min Rain = 0
KQU1 171540Z 30007KT 09/M01 A3018 RMK A01 T00931008  RH  049%=      5-min Rain = 0
KQU1 171541Z 30009KT 09/M01 A3018 RMK A01 T00931010  RH  048%=      5-min Rain = 0
KQU1 171542Z 30007KT 09/M01 A3018 RMK A01 T00941008  RH  049%=      5-min Rain = 0
KQU1 171543Z 30010KT 10/M01 A3018 RMK A01 T00951008  RH  049%=      5-min Rain = 0
KQU1 171544Z 29009KT 10/M01 A3018 RMK A01 T00951009  RH  048%=      5-min Rain = 0
KQU1 171545Z 29008KT 10/M01 A3018 RMK A01 T00951008  RH  049%=      5-min Rain = 0
KQU1 171546Z 30007KT 10/M01 A3018 RMK A01 T00961006  RH  049%=      5-min Rain = 0
KQU1 171547Z 29007KT 10/M01 A3018 RMK A01 T00971006  RH  049%=      5-min Rain = 0
KQU1 171548Z 29008KT 10/M01 A3018 RMK A01 T00981006  RH  048%=      5-min Rain = 0
KQU1 171549Z 29008KT 10/M01 A3018 RMK A01 T00991007  RH  048%=      5-min Rain = 0
KQU1 171550Z 29007KT 10/M01 A3018 RMK A01 T01001007  RH  047%=      5-min Rain = 0
KQU1 171551Z 29009KT 10/M01 A3018 RMK A01 T01011008  RH  047%=      5-min Rain = 0
KQU1 171552Z 29008KT 10/M01 A3018 RMK A01 T01031006  RH  047%=      5-min Rain = 0
KQU1 171553Z 29007KT 10/M01 A3018 RMK A01 T01041007  RH  046%=      5-min Rain = 0
KQU1 171554Z 29007KT 11/M01 A3018 RMK A01 T01061006  RH  046%=      5-min Rain = 0
KQU1 171555Z 29007KT 11/M01 A3018 RMK A01 T01071006  RH  046%=      5-min Rain = 0
KQU1 171556Z 29008KT 11/M01 A3018 RMK A01 T01081007  RH  045%=      5-min Rain = 0
KQU1 171557Z 28007KT 11/M01 A3018 RMK A01 T01091006  RH  045%=      5-min Rain = 0
KQU1 171558Z 29007KT 11/M01 A3018 RMK A01 T01091008  RH  044%=      5-min Rain = 0
KQU1 171559Z 30006KT 11/M01 A3018 RMK A01 T01111006  RH  044%=      5-min Rain = 0
KQU1 171600Z 29007KT 11/M01 A3018 RMK A01 T01111006  RH  044%=      5-min Rain = 0
KQU1 171601Z 29008KT 11/M01 A3018 RMK A01 T01131007  RH  044%=      5-min Rain = 0
KQU1 171602Z 30007KT 11/M01 A3018 RMK A01 T01131007  RH  043%=      5-min Rain = 0
KQU1 171603Z 31007KT 12/M01 A3018 RMK A01 T01151007  RH  043%=      5-min Rain = 0
KQU1 171604Z 31007KT 12/M01 A3018 RMK A01 T01161006  RH  043%=      5-min Rain = 0
KQU1 171605Z 32007KT 12/M01 A3018 RMK A01 T01171007  RH  042%=      5-min Rain = 0
KQU1 171606Z 32008KT 12/M01 A3018 RMK A01 T01171008  RH  042%=      5-min Rain = 0
KQU1 171607Z 31007KT 12/M01 A3018 RMK A01 T01181006  RH  042%=      5-min Rain = 0
KQU1 171608Z 31008KT 12/M01 A3018 RMK A01 T01181006  RH  042%=      5-min Rain = 0
KQU1 171609Z 31007KT 12/M01 A3018 RMK A01 T01191005  RH  042%=      5-min Rain = 0
KQU1 171610Z 31009KT 12/M01 A3018 RMK A01 T01201005  RH  042%=      5-min Rain = 0
KQU1 171611Z 30007KT 12/M00 A3018 RMK A01 T01201004  RH  042%=      5-min Rain = 0
KQU1 171612Z 30006KT 12/M00 A3018 RMK A01 T01221002  RH  043%=      5-min Rain = 0
KQU1 171613Z 30009KT 12/M00 A3018 RMK A01 T01221004  RH  042%=      5-min Rain = 0
KQU1 171614Z 30009KT 12/M01 A3018 RMK A01 T01221005  RH  042%=      5-min Rain = 0
KQU1 171615Z 30007KT 12/M00 A3018 RMK A01 T01211003  RH  042%=      5-min Rain = 0
KQU1 171616Z 30008KT 12/M00 A3018 RMK A01 T01231001  RH  043%=      5-min Rain = 0
KQU1 171617Z 30008KT 12/M00 A3018 RMK A01 T01231004  RH  042%=      5-min Rain = 0
KQU1 171618Z 30009KT 12/M00 A3018 RMK A01 T01241004  RH  042%=      5-min Rain = 0
KQU1 171619Z 30009KT 12/M01 A3018 RMK A01 T01241005  RH  041%=      5-min Rain = 0
KQU1 171620Z 31009KT 12/M01 A3018 RMK A01 T01241005  RH  041%=      5-min Rain = 0
KQU1 171621Z 31009KT 13/M00 A3018 RMK A01 T01251003  RH  041%=      5-min Rain = 0
KQU1 171622Z 30010KT 13/M00 A3018 RMK A01 T01251004  RH  041%=      5-min Rain = 0
KQU1 171623Z 31008KT 13/M01 A3018 RMK A01 T01251005  RH  041%=      5-min Rain = 0
KQU1 171624Z 30007KT 13/M00 A3018 RMK A01 T01271002  RH  041%=      5-min Rain = 0
KQU1 171625Z 30007KT 13/M00 A3018 RMK A01 T01281003  RH  041%=      5-min Rain = 0
KQU1 171626Z 29009KT 13/M00 A3018 RMK A01 T01291001  RH  041%=      5-min Rain = 0
KQU1 171627Z 30009KT 13/M00 A3018 RMK A01 T01301003  RH  040%=      5-min Rain = 0
KQU1 171628Z 31008KT 13/M00 A3018 RMK A01 T01301004  RH  039%=      5-min Rain = 0
KQU1 171629Z 31007KT 13/M00 A3019 RMK A01 T01311003  RH  040%=      5-min Rain = 0
KQU1 171630Z 31008KT 13/M01 A3019 RMK A01 T01321005  RH  039%=      5-min Rain = 0
KQU1 171631Z 32006KT 13/M00 A3019 RMK A01 T01321004  RH  039%=      5-min Rain = 0
KQU1 171632Z 31007KT 13/M00 A3019 RMK A01 T01331004  RH  039%=      5-min Rain = 0
KQU1 171633Z 32007KT 14/M00 A3019 RMK A01 T01351003  RH  039%=      5-min Rain = 0
KQU1 171634Z 31008KT 14/M00 A3019 RMK A01 T01361003  RH  038%=      5-min Rain = 0
KQU1 171635Z 32006KT 14/M00 A3019 RMK A01 T01361003  RH  038%=      5-min Rain = 0
KQU1 171636Z 34006KT 14/M01 A3019 RMK A01 T01361005  RH  038%=      5-min Rain = 0
KQU1 171637Z 33004KT 14/M00 A3019 RMK A01 T01371003  RH  038%=      5-min Rain = 0
KQU1 171638Z 36005KT 14/M00 A3019 RMK A01 T01371004  RH  038%=      5-min Rain = 0
KQU1 171639Z 00005KT 14/M01 A3019 RMK A01 T01381005  RH  037%=      5-min Rain = 0
KQU1 171640Z 35006KT 14/M01 A3019 RMK A01 T01381007  RH  037%=      5-min Rain = 0
KQU1 171641Z 35005KT 14/M01 A3019 RMK A01 T01381008  RH  037%=      5-min Rain = 0
KQU1 171642Z 34006KT 14/M01 A3019 RMK A01 T01381010  RH  036%=      5-min Rain = 0
KQU1 171643Z 34006KT 14/M01 A3019 RMK A01 T01371010  RH  036%=      5-min Rain = 0
KQU1 171644Z 33005KT 14/M01 A3019 RMK A01 T01371010  RH  036%=      5-min Rain = 0
KQU1 171645Z 35004KT 14/M01 A3019 RMK A01 T01371009  RH  037%=      5-min Rain = 0
KQU1 171646Z 35002KT 14/M01 A3019 RMK A01 T01371007  RH  037%=      5-min Rain = 0
KQU1 171647Z 34004KT 14/M01 A3019 RMK A01 T01371007  RH  037%=      5-min Rain = 0
KQU1 171648Z 33004KT 14/M01 A3019 RMK A01 T01381006  RH  037%=      5-min Rain = 0
KQU1 171649Z 36005KT 14/M01 A3019 RMK A01 T01391006  RH  037%=      5-min Rain = 0
KQU1 171650Z 35006KT 14/M01 A3019 RMK A01 T01381007  RH  037%=      5-min Rain = 0
KQU1 171651Z 35006KT 14/M01 A3019 RMK A01 T01391008  RH  036%=      5-min Rain = 0
KQU1 171652Z 35006KT 14/M01 A3019 RMK A01 T01391008  RH  036%=      5-min Rain = 0
KQU1 171653Z 34006KT 14/M01 A3019 RMK A01 T01391008  RH  037%=      5-min Rain = 0
KQU1 171654Z 33006KT 14/M01 A3019 RMK A01 T01381009  RH  036%=      5-min Rain = 0
KQU1 171655Z 33005KT 14/M01 A3019 RMK A01 T01381008  RH  036%=      5-min Rain = 0
KQU1 171656Z 31006KT 14/M01 A3019 RMK A01 T01391008  RH  036%=      5-min Rain = 0
KQU1 171657Z 35005KT 14/M01 A3019 RMK A01 T01401005  RH  037%=      5-min Rain = 0
KQU1 171658Z 01002KT 14/M01 A3019 RMK A01 T01421005  RH  036%=      5-min Rain = 0
KQU1 171659Z 00003KT 14/M00 A3019 RMK A01 T01431003  RH  037%=      5-min Rain = 0
KQU1 171700Z 36004KT 14/M00 A3019 RMK A01 T01441003  RH  036%=      5-min Rain = 0
KQU1 171701Z 36004KT 15/M01 A302 RMK A01 T01451007  RH  035%=      5-min Rain = 0
KQU1 171702Z 35002KT 15/M01 A3019 RMK A01 T01451007  RH  035%=      5-min Rain = 0
KQU1 171703Z 36004KT 15/M01 A3019 RMK A01 T01451008  RH  035%=      5-min Rain = 0
KQU1 171704Z 00004KT 15/M01 A3019 RMK A01 T01451007  RH  035%=      5-min Rain = 0
KQU1 171705Z 35004KT 15/M01 A3019 RMK A01 T01451006  RH  035%=      5-min Rain = 0
KQU1 171706Z 36003KT 15/M01 A3019 RMK A01 T01451007  RH  035%=      5-min Rain = 0
KQU1 171707Z 35003KT 15/M01 A3019 RMK A01 T01461008  RH  035%=      5-min Rain = 0
KQU1 171708Z 36001KT 15/M01 A3019 RMK A01 T01461008  RH  035%=      5-min Rain = 0
KQU1 171709Z 01002KT 15/M01 A302 RMK A01 T01471006  RH  035%=      5-min Rain = 0
KQU1 171710Z 01002KT 15/M01 A302 RMK A01 T01481008  RH  034%=      5-min Rain = 0
KQU1 171711Z 04001KT 15/M01 A302 RMK A01 T01491007  RH  034%=      5-min Rain = 0
KQU1 171712Z 05003KT 15/M01 A302 RMK A01 T01501006  RH  034%=      5-min Rain = 0
KQU1 171713Z 06003KT 15/M01 A302 RMK A01 T01501011  RH  033%=      5-min Rain = 0
KQU1 171714Z 10003KT 15/M01 A302 RMK A01 T01501010  RH  033%=      5-min Rain = 0
KQU1 171715Z 10002KT 15/M01 A302 RMK A01 T01501009  RH  033%=      5-min Rain = 0
KQU1 171716Z 09003KT 15/M01 A302 RMK A01 T01521010  RH  033%=      5-min Rain = 0
KQU1 171717Z 05002KT 15/M01 A302 RMK A01 T01521011  RH  033%=      5-min Rain = 0
KQU1 171718Z 05005KT 15/M01 A302 RMK A01 T01511010  RH  033%=      5-min Rain = 0
KQU1 171719Z 03002KT 15/M01 A302 RMK A01 T01511012  RH  033%=      5-min Rain = 0
KQU1 171720Z 34001KT 15/M01 A302 RMK A01 T01521009  RH  033%=      5-min Rain = 0
KQU1 171721Z 34001KT 15/M01 A302 RMK A01 T01541009  RH  033%=      5-min Rain = 0
KQU1 171722Z 05003KT 16/M01 A302 RMK A01 T01551010  RH  032%=      5-min Rain = 0
KQU1 171723Z 04004KT 16/M01 A302 RMK A01 T01551012  RH  032%=      5-min Rain = 0
KQU1 171724Z 04004KT 16/M01 A302 RMK A01 T01551013  RH  031%=      5-min Rain = 0
KQU1 171725Z 04003KT 15/M01 A302 RMK A01 T01541013  RH  032%=      5-min Rain = 0
KQU1 171726Z 05001KT 15/M01 A302 RMK A01 T01541014  RH  032%=      5-min Rain = 0
KQU1 171727Z 04002KT 16/M01 A302 RMK A01 T01551013  RH  032%=      5-min Rain = 0
KQU1 171728Z 05005KT 16/M02 A302 RMK A01 T01551015  RH  031%=      5-min Rain = 0
KQU1 171729Z 05005KT 16/M02 A302 RMK A01 T01551016  RH  031%=      5-min Rain = 0
KQU1 171730Z 05005KT 16/M02 A302 RMK A01 T01551016  RH  031%=      5-min Rain = 0
KQU1 171731Z 03005KT 16/M02 A302 RMK A01 T01551015  RH  031%=      5-min Rain = 0
KQU1 171732Z 01004KT 16/M02 A302 RMK A01 T01551017  RH  031%=      5-min Rain = 0
KQU1 171733Z 02003KT 15/M02 A302 RMK A01 T01541017  RH  031%=      5-min Rain = 0
KQU1 171734Z 01002KT 15/M02 A302 RMK A01 T01531016  RH  031%=      5-min Rain = 0
KQU1 171735Z 00002KT 15/M02 A302 RMK A01 T01541018  RH  031%=      5-min Rain = 0
KQU1 171736Z 00001KT 16/M02 A302 RMK A01 T01551019  RH  030%=      5-min Rain = 0
KQU1 171737Z 34000KT 16/M02 A302 RMK A01 T01561017  RH  031%=      5-min Rain = 0
KQU1 171738Z 07001KT 16/M01 A302 RMK A01 T01561014  RH  031%=      5-min Rain = 0
KQU1 171739Z 07002KT 16/M01 A302 RMK A01 T01581014  RH  031%=      5-min Rain = 0
KQU1 171740Z 06002KT 16/M01 A302 RMK A01 T01591014  RH  031%=      5-min Rain = 0
KQU1 171741Z 05001KT 16/M02 A302 RMK A01 T01601015  RH  030%=      5-min Rain = 0
KQU1 171742Z 05000KT 16/M01 A302 RMK A01 T01611012  RH  031%=      5-min Rain = 0
KQU1 171743Z 00000KT 16/M01 A302 RMK A01 T01611012  RH  031%=      5-min Rain = 0
KQU1 171744Z 25000KT 16/M01 A302 RMK A01 T01621010  RH  031%=      5-min Rain = 0
KQU1 171745Z 26000KT 16/M01 A302 RMK A01 T01631011  RH  030%=      5-min Rain = 0
KQU1 171746Z 24000KT 17/M01 A302 RMK A01 T01651010  RH  030%=      5-min Rain = 0
KQU1 171747Z 24001KT 17/M01 A302 RMK A01 T01661013  RH  030%=      5-min Rain = 0
KQU1 171748Z 24000KT 17/M02 A302 RMK A01 T01661016  RH  029%=      5-min Rain = 0
KQU1 171749Z 21001KT 17/M02 A302 RMK A01 T01671015  RH  029%=      5-min Rain = 0
KQU1 171750Z 22000KT 17/M02 A302 RMK A01 T01681015  RH  029%=      5-min Rain = 0
KQU1 171751Z 25001KT 17/M02 A302 RMK A01 T01691018  RH  028%=      5-min Rain = 0
KQU1 171752Z 26000KT 17/M02 A302 RMK A01 T01681020  RH  028%=      5-min Rain = 0
KQU1 171753Z 00000KT 17/M02 A302 RMK A01 T01691017  RH  028%=      5-min Rain = 0
KQU1 171754Z 03001KT 17/M02 A302 RMK A01 T01681018  RH  028%=      5-min Rain = 0
KQU1 171755Z 01002KT 17/M02 A302 RMK A01 T01681016  RH  028%=      5-min Rain = 0
KQU1 171756Z 01003KT 17/M02 A302 RMK A01 T01681015  RH  029%=      5-min Rain = 0
KQU1 171757Z 01003KT 17/M02 A302 RMK A01 T01661015  RH  029%=      5-min Rain = 0
KQU1 171758Z 01003KT 17/M02 A302 RMK A01 T01651015  RH  029%=      5-min Rain = 0
KQU1 171759Z 05003KT 16/M01 A302 RMK A01 T01641014  RH  030%=      5-min Rain = 0
KQU1 171800Z 05003KT 16/M02 A302 RMK A01 T01641015  RH  030%=      5-min Rain = 0
KQU1 171801Z 07002KT 16/M01 A302 RMK A01 T01631014  RH  030%=      5-min Rain = 0
KQU1 171802Z 06002KT 16/M01 A302 RMK A01 T01641013  RH  030%=      5-min Rain = 0
KQU1 171803Z 08003KT 16/M01 A302 RMK A01 T01641013  RH  030%=      5-min Rain = 0
KQU1 171804Z 13003KT 17/M02 A302 RMK A01 T01651015  RH  029%=      5-min Rain = 0
KQU1 171805Z 14003KT 17/M01 A302 RMK A01 T01661014  RH  029%=      5-min Rain = 0
KQU1 171806Z 11004KT 17/M01 A302 RMK A01 T01671014  RH  029%=      5-min Rain = 0
KQU1 171807Z 14005KT 17/M01 A302 RMK A01 T01691013  RH  029%=      5-min Rain = 0
KQU1 171808Z 13006KT 17/M01 A302 RMK A01 T01701012  RH  029%=      5-min Rain = 0
KQU1 171809Z 13007KT 17/M01 A302 RMK A01 T01721013  RH  028%=      5-min Rain = 0
KQU1 171810Z 13006KT 17/M02 A302 RMK A01 T01721015  RH  028%=      5-min Rain = 0
KQU1 171811Z 14005KT 17/M01 A302 RMK A01 T01731012  RH  028%=      5-min Rain = 0
KQU1 171812Z 12005KT 17/M01 A302 RMK A01 T01741014  RH  028%=      5-min Rain = 0
KQU1 171813Z 11005KT 17/M02 A302 RMK A01 T01731016  RH  027%=      5-min Rain = 0
KQU1 171814Z 14003KT 17/M02 A302 RMK A01 T01731016  RH  028%=      5-min Rain = 0
KQU1 171815Z 14005KT 17/M01 A302 RMK A01 T01731014  RH  028%=      5-min Rain = 0
KQU1 171816Z 14005KT 17/M02 A302 RMK A01 T01731016  RH  028%=      5-min Rain = 0
KQU1 171817Z 11004KT 17/M02 A3019 RMK A01 T01721016  RH  028%=      5-min Rain = 0
KQU1 171818Z 11004KT 17/M02 A3019 RMK A01 T01711017  RH  028%=      5-min Rain = 0
KQU1 171819Z 10002KT 17/M01 A3019 RMK A01 T01711014  RH  028%=      5-min Rain = 0
KQU1 171820Z 08001KT 17/M01 A3019 RMK A01 T01721014  RH  028%=      5-min Rain = 0
KQU1 171821Z 25000KT 17/M02 A3019 RMK A01 T01741015  RH  028%=      5-min Rain = 0
KQU1 171822Z 25002KT 17/M02 A3019 RMK A01 T01721018  RH  027%=      5-min Rain = 0
KQU1 171823Z 23001KT 17/M02 A3019 RMK A01 T01691018  RH  028%=      5-min Rain = 0
KQU1 171824Z 16004KT 17/M01 A3019 RMK A01 T01691014  RH  029%=      5-min Rain = 0
KQU1 171825Z 16005KT 17/M02 A3019 RMK A01 T01711015  RH  028%=      5-min Rain = 0
KQU1 171826Z 13004KT 17/M02 A3019 RMK A01 T01711015  RH  028%=      5-min Rain = 0
KQU1 171827Z 11003KT 17/M02 A3019 RMK A01 T01711016  RH  028%=      5-min Rain = 0
KQU1 171828Z 15003KT 17/M02 A3019 RMK A01 T01721015  RH  028%=      5-min Rain = 0
KQU1 171829Z 16004KT 17/M01 A3019 RMK A01 T01731013  RH  028%=      5-min Rain = 0
KQU1 171830Z 14006KT 17/M01 A3018 RMK A01 T01741014  RH  028%=      5-min Rain = 0
KQU1 171831Z 14005KT 18/M02 A3018 RMK A01 T01751016  RH  027%=      5-min Rain = 0
KQU1 171832Z 15004KT 17/M02 A3018 RMK A01 T01741016  RH  027%=      5-min Rain = 0
KQU1 171833Z 13002KT 17/M02 A3018 RMK A01 T01741017  RH  027%=      5-min Rain = 0
KQU1 171834Z 17001KT 17/M01 A3018 RMK A01 T01741014  RH  028%=      5-min Rain = 0
KQU1 171835Z 20003KT 18/M02 A3018 RMK A01 T01751017  RH  027%=      5-min Rain = 0
KQU1 171836Z 19004KT 17/M02 A3018 RMK A01 T01741015  RH  028%=      5-min Rain = 0
KQU1 171837Z 13005KT 17/M01 A3017 RMK A01 T01741013  RH  028%=      5-min Rain = 0
KQU1 171838Z 13003KT 18/M01 A3017 RMK A01 T01751011  RH  028%=      5-min Rain = 0
KQU1 171839Z 11002KT 18/M01 A3017 RMK A01 T01771014  RH  027%=      5-min Rain = 0
KQU1 171840Z 13002KT 18/M01 A3017 RMK A01 T01771014  RH  027%=      5-min Rain = 0
KQU1 171841Z 14001KT 18/M01 A3017 RMK A01 T01781010  RH  028%=      5-min Rain = 0
KQU1 171842Z 16000KT 18/M01 A3017 RMK A01 T01791013  RH  027%=      5-min Rain = 0
KQU1 171843Z 11003KT 18/M01 A3017 RMK A01 T01801014  RH  027%=      5-min Rain = 0
KQU1 171844Z 09004KT 18/M01 A3017 RMK A01 T01791013  RH  027%=      5-min Rain = 0
KQU1 171845Z 13004KT 18/M01 A3017 RMK A01 T01791012  RH  027%=      5-min Rain = 0
KQU1 171846Z 15004KT 18/M01 A3017 RMK A01 T01791012  RH  027%=      5-min Rain = 0
KQU1 171847Z 15004KT 18/M01 A3017 RMK A01 T01791012  RH  027%=      5-min Rain = 0
KQU1 171848Z 14006KT 18/M02 A3017 RMK A01 T01791015  RH  027%=      5-min Rain = 0
KQU1 171849Z 14007KT 18/M01 A3017 RMK A01 T01781014  RH  027%=      5-min Rain = 0
KQU1 171850Z 14006KT 18/M01 A3016 RMK A01 T01781014  RH  027%=      5-min Rain = 0
KQU1 171851Z 15007KT 18/M01 A3016 RMK A01 T01771012  RH  028%=      5-min Rain = 0
KQU1 171852Z 16008KT 18/M01 A3016 RMK A01 T01771013  RH  027%=      5-min Rain = 0
KQU1 171853Z 14004KT 18/M01 A3016 RMK A01 T01761012  RH  028%=      5-min Rain = 0
KQU1 171854Z 14005KT 18/M01 A3016 RMK A01 T01771011  RH  028%=      5-min Rain = 0
KQU1 171855Z 16005KT 18/M01 A3016 RMK A01 T01781012  RH  028%=      5-min Rain = 0
KQU1 171856Z 16004KT 18/M02 A3016 RMK A01 T01771015  RH  027%=      5-min Rain = 0
KQU1 171857Z 17003KT 18/M02 A3016 RMK A01 T01751016  RH  027%=      5-min Rain = 0
KQU1 171858Z 22001KT 17/M02 A3016 RMK A01 T01741017  RH  027%=      5-min Rain = 0
KQU1 171859Z 15003G9KT 17/M02 A3016 RMK A01 T01731016  RH  027%=      5-min Rain = 0
KQU1 171900Z 15008KT 17/M02 A3016 RMK A01 T01741017  RH  027%=      5-min Rain = 0
KQU1 171901Z 15006KT 17/M02 A3016 RMK A01 T01741018  RH  027%=      5-min Rain = 0
KQU1 171902Z 15006KT 17/M02 A3016 RMK A01 T01741019  RH  027%=      5-min Rain = 0
KQU1 171903Z 16005KT 17/M02 A3015 RMK A01 T01731021  RH  027%=      5-min Rain = 0
KQU1 171904Z 18003KT 17/M02 A3015 RMK A01 T01711019  RH  027%=      5-min Rain = 0
KQU1 171905Z 16007KT 17/M02 A3015 RMK A01 T01721017  RH  028%=      5-min Rain = 0
KQU1 171906Z 16007KT 17/M02 A3015 RMK A01 T01711017  RH  028%=      5-min Rain = 0
KQU1 171907Z 16004KT 17/M02 A3015 RMK A01 T01711016  RH  028%=      5-min Rain = 0
KQU1 171908Z 13004KT 17/M02 A3015 RMK A01 T01721015  RH  028%=      5-min Rain = 0
KQU1 171909Z 14006KT 17/M02 A3015 RMK A01 T01731016  RH  027%=      5-min Rain = 0
KQU1 171910Z 13006KT 18/M02 A3015 RMK A01 T01751018  RH  027%=      5-min Rain = 0
KQU1 171911Z 15007KT 18/M02 A3015 RMK A01 T01771015  RH  027%=      5-min Rain = 0
KQU1 171912Z 18008KT 18/M02 A3015 RMK A01 T01771018  RH  026%=      5-min Rain = 0
KQU1 171913Z 17008KT 18/M02 A3015 RMK A01 T01761018  RH  027%=      5-min Rain = 0
KQU1 171914Z 17008KT 17/M02 A3015 RMK A01 T01741018  RH  027%=      5-min Rain = 0
KQU1 171915Z 17005KT 17/M02 A3015 RMK A01 T01741016  RH  027%=      5-min Rain = 0
KQU1 171916Z 16004KT 18/M02 A3015 RMK A01 T01751015  RH  027%=      5-min Rain = 0
KQU1 171917Z 17004KT 18/M02 A3015 RMK A01 T01761016  RH  027%=      5-min Rain = 0
KQU1 171918Z 18006KT 18/M02 A3015 RMK A01 T01751015  RH  027%=      5-min Rain = 0
KQU1 171919Z 16004KT 18/M02 A3015 RMK A01 T01751018  RH  027%=      5-min Rain = 0
KQU1 171920Z 15006KT 18/M02 A3015 RMK A01 T01761016  RH  027%=      5-min Rain = 0
KQU1 171921Z 15009KT 18/M02 A3015 RMK A01 T01771018  RH  027%=      5-min Rain = 0
KQU1 171922Z 15007KT 18/M02 A3014 RMK A01 T01761018  RH  027%=      5-min Rain = 0
KQU1 171923Z 16009KT 18/M02 A3014 RMK A01 T01771017  RH  027%=      5-min Rain = 0
KQU1 171924Z 15009KT 18/M02 A3014 RMK A01 T01781016  RH  027%=      5-min Rain = 0
KQU1 171925Z 16007KT 18/M02 A3014 RMK A01 T01791016  RH  027%=      5-min Rain = 0
KQU1 171926Z 15007KT 18/M02 A3014 RMK A01 T01791017  RH  026%=      5-min Rain = 0
KQU1 171927Z 14005KT 18/M02 A3014 RMK A01 T01791018  RH  026%=      5-min Rain = 0
KQU1 171928Z 14006KT 18/M02 A3014 RMK A01 T01791017  RH  026%=      5-min Rain = 0
KQU1 171929Z 13004KT 18/M02 A3014 RMK A01 T01801018  RH  026%=      5-min Rain = 0
KQU1 171930Z 14003KT 18/M02 A3014 RMK A01 T01801018  RH  026%=      5-min Rain = 0
KQU1 171931Z 18004KT 18/M02 A3014 RMK A01 T01801018  RH  026%=      5-min Rain = 0
KQU1 171932Z 16007KT 18/M02 A3014 RMK A01 T01791016  RH  026%=      5-min Rain = 0
KQU1 171933Z 16006KT 18/M02 A3013 RMK A01 T01791017  RH  026%=      5-min Rain = 0
KQU1 171934Z 13006KT 18/M01 A3013 RMK A01 T01791014  RH  027%=      5-min Rain = 0
KQU1 171935Z 16010KT 18/M01 A3013 RMK A01 T01811013  RH  027%=      5-min Rain = 0
KQU1 171936Z 17009KT 18/M02 A3013 RMK A01 T01811016  RH  026%=      5-min Rain = 0
KQU1 171937Z 17010KT 18/M02 A3013 RMK A01 T01801017  RH  026%=      5-min Rain = 0
KQU1 171938Z 18008KT 18/M02 A3013 RMK A01 T01781018  RH  026%=      5-min Rain = 0
KQU1 171939Z 16006KT 18/M01 A3013 RMK A01 T01781014  RH  027%=      5-min Rain = 0
KQU1 171940Z 17007KT 18/M02 A3013 RMK A01 T01801015  RH  027%=      5-min Rain = 0
KQU1 171941Z 17009KT 18/M02 A3013 RMK A01 T01791017  RH  026%=      5-min Rain = 0
KQU1 171942Z 17006KT 18/M02 A3013 RMK A01 T01781018  RH  026%=      5-min Rain = 0
KQU1 171943Z 14006KT 18/M02 A3013 RMK A01 T01791016  RH  027%=      5-min Rain = 0
KQU1 171944Z 15008KT 18/M02 A3012 RMK A01 T01791017  RH  026%=      5-min Rain = 0
KQU1 171945Z 15009KT 18/M02 A3012 RMK A01 T01791016  RH  026%=      5-min Rain = 0
KQU1 171946Z 13009KT 18/M02 A3012 RMK A01 T01781017  RH  026%=      5-min Rain = 0
KQU1 171947Z 14006KT 18/M02 A3012 RMK A01 T01791016  RH  027%=      5-min Rain = 0
KQU1 171948Z 17004KT 18/M02 A3012 RMK A01 T01801015  RH  027%=      5-min Rain = 0
KQU1 171949Z 16004KT 18/M02 A3012 RMK A01 T01801016  RH  026%=      5-min Rain = 0
KQU1 171950Z 16006KT 18/M01 A3012 RMK A01 T01811014  RH  027%=      5-min Rain = 0
KQU1 171951Z 18005KT 18/M02 A3012 RMK A01 T01821016  RH  026%=      5-min Rain = 0
KQU1 171952Z 15007KT 18/M02 A3011 RMK A01 T01821015  RH  026%=      5-min Rain = 0
KQU1 171953Z 14008KT 18/M01 A3011 RMK A01 T01831013  RH  026%=      5-min Rain = 0
KQU1 171954Z 15008KT 18/M02 A3011 RMK A01 T01831016  RH  026%=      5-min Rain = 0
KQU1 171955Z 16005KT 18/M02 A3011 RMK A01 T01811017  RH  026%=      5-min Rain = 0
KQU1 171956Z 15003KT 18/M02 A3011 RMK A01 T01801015  RH  027%=      5-min Rain = 0
KQU1 171957Z 11005KT 18/M02 A3011 RMK A01 T01801015  RH  027%=      5-min Rain = 0
KQU1 171958Z 12004KT 18/M01 A3011 RMK A01 T01811014  RH  027%=      5-min Rain = 0
KQU1 171959Z 14004KT 18/M01 A3011 RMK A01 T01821013  RH  027%=      5-min Rain = 0
KQU1 172000Z 11006KT 18/M02 A3011 RMK A01 T01831015  RH  026%=      5-min Rain = 0
KQU1 172001Z 13006KT 18/M02 A301 RMK A01 T01841015  RH  026%=      5-min Rain = 0
KQU1 172002Z 14008KT 19/M01 A301 RMK A01 T01851013  RH  026%=      5-min Rain = 0
KQU1 172003Z 14007KT 19/M01 A301 RMK A01 T01861014  RH  026%=      5-min Rain = 0
KQU1 172004Z 13005KT 19/M02 A301 RMK A01 T01861015  RH  026%=      5-min Rain = 0
KQU1 172005Z 13009KT 19/M02 A301 RMK A01 T01861015  RH  026%=      5-min Rain = 0
KQU1 172006Z 15007KT 19/M02 A301 RMK A01 T01861015  RH  026%=      5-min Rain = 0
KQU1 172007Z 16009KT 19/M02 A301 RMK A01 T01851016  RH  026%=      5-min Rain = 0
KQU1 172008Z 17006KT 18/M02 A301 RMK A01 T01831018  RH  025%=      5-min Rain = 0
KQU1 172009Z 15005KT 18/M02 A301 RMK A01 T01821018  RH  026%=      5-min Rain = 0
KQU1 172010Z 16005KT 18/M02 A301 RMK A01 T01811017  RH  026%=      5-min Rain = 0
KQU1 172011Z 14007KT 18/M02 A301 RMK A01 T01831016  RH  026%=      5-min Rain = 0
KQU1 172012Z 16006KT 18/M02 A301 RMK A01 T01841015  RH  026%=      5-min Rain = 0
KQU1 172013Z 16006KT 18/M02 A301 RMK A01 T01841016  RH  026%=      5-min Rain = 0
KQU1 172014Z 17007KT 18/M02 A301 RMK A01 T01841015  RH  026%=      5-min Rain = 0
KQU1 172015Z 13007KT 19/M02 A301 RMK A01 T01851015  RH  026%=      5-min Rain = 0
KQU1 172016Z 12006KT 19/M02 A301 RMK A01 T01851017  RH  025%=      5-min Rain = 0
KQU1 172017Z 16007KT 19/M02 A301 RMK A01 T01851016  RH  026%=      5-min Rain = 0
KQU1 172018Z 17007KT 18/M02 A301 RMK A01 T01841017  RH  026%=      5-min Rain = 0
KQU1 172019Z 15010G15KT 18/M01 A301 RMK A01 T01841014  RH  026%=      5-min Rain = 0
KQU1 172020Z 15009KT 19/M01 A301 RMK A01 T01871013  RH  026%=      5-min Rain = 0
KQU1 172021Z 16009KT 19/M02 A301 RMK A01 T01871016  RH  025%=      5-min Rain = 0
KQU1 172022Z 15008KT 19/M02 A301 RMK A01 T01861017  RH  025%=      5-min Rain = 0
KQU1 172023Z 15006KT 19/M02 A301 RMK A01 T01851018  RH  025%=      5-min Rain = 0
KQU1 172024Z 16006KT 19/M02 A301 RMK A01 T01851016  RH  026%=      5-min Rain = 0
KQU1 172025Z 13008KT 19/M02 A301 RMK A01 T01851015  RH  026%=      5-min Rain = 0
KQU1 172026Z 13007KT 19/M02 A301 RMK A01 T01871015  RH  025%=      5-min Rain = 0
KQU1 172027Z 13007KT 19/M02 A301 RMK A01 T01881016  RH  025%=      5-min Rain = 0
KQU1 172028Z 14007KT 19/M02 A301 RMK A01 T01891015  RH  025%=      5-min Rain = 0
KQU1 172029Z 13006KT 19/M02 A301 RMK A01 T01891015  RH  025%=      5-min Rain = 0
KQU1 172030Z 13005KT 19/M02 A301 RMK A01 T01901015  RH  025%=      5-min Rain = 0
KQU1 172031Z 12007KT 19/M02 A301 RMK A01 T01901016  RH  025%=      5-min Rain = 0
KQU1 172032Z 12007KT 19/M02 A3009 RMK A01 T01901016  RH  025%=      5-min Rain = 0
KQU1 172033Z 13010KT 19/M02 A3009 RMK A01 T01891016  RH  025%=      5-min Rain = 0
KQU1 172034Z 13008KT 19/M02 A3009 RMK A01 T01881016  RH  025%=      5-min Rain = 0
KQU1 172035Z 13008KT 19/M02 A3009 RMK A01 T01881015  RH  025%=      5-min Rain = 0
KQU1 172036Z 12007KT 19/M02 A3009 RMK A01 T01881016  RH  025%=      5-min Rain = 0
KQU1 172037Z 15007KT 19/M02 A3009 RMK A01 T01871015  RH  025%=      5-min Rain = 0
KQU1 172038Z 17007KT 19/M02 A3009 RMK A01 T01861017  RH  025%=      5-min Rain = 0
KQU1 172039Z 15005KT 19/M02 A3009 RMK A01 T01851018  RH  025%=      5-min Rain = 0
KQU1 172040Z 13003KT 19/M02 A3009 RMK A01 T01851017  RH  025%=      5-min Rain = 0
KQU1 172041Z 15007KT 19/M02 A3009 RMK A01 T01861016  RH  025%=      5-min Rain = 0
KQU1 172042Z 15005KT 19/M02 A3009 RMK A01 T01871017  RH  025%=      5-min Rain = 0
KQU1 172043Z 13005KT 19/M02 A3009 RMK A01 T01871018  RH  025%=      5-min Rain = 0
KQU1 172044Z 14006KT 19/M02 A3009 RMK A01 T01871019  RH  025%=      5-min Rain = 0
KQU1 172045Z 16004KT 19/M02 A3009 RMK A01 T01861017  RH  025%=      5-min Rain = 0
KQU1 172046Z 13006G11KT 19/M02 A3009 RMK A01 T01871016  RH  025%=      5-min Rain = 0
KQU1 172047Z 13009KT 19/M02 A3009 RMK A01 T01881015  RH  025%=      5-min Rain = 0
KQU1 172048Z 11008KT 19/M02 A3009 RMK A01 T01871016  RH  025%=      5-min Rain = 0
KQU1 172049Z 12008KT 19/M02 A3009 RMK A01 T01861018  RH  025%=      5-min Rain = 0
KQU1 172050Z 12009KT 19/M02 A3009 RMK A01 T01851016  RH  026%=      5-min Rain = 0
KQU1 172051Z 12008KT 19/M02 A3009 RMK A01 T01851016  RH  026%=      5-min Rain = 0
KQU1 172052Z 12007KT 19/M02 A3009 RMK A01 T01861015  RH  025%=      5-min Rain = 0
KQU1 172053Z 14007KT 19/M02 A3009 RMK A01 T01871015  RH  025%=      5-min Rain = 0
KQU1 172054Z 12006KT 19/M02 A3009 RMK A01 T01881016  RH  025%=      5-min Rain = 0
KQU1 172055Z 12005KT 19/M02 A3009 RMK A01 T01871017  RH  025%=      5-min Rain = 0
KQU1 172056Z 13005KT 19/M02 A3009 RMK A01 T01871017  RH  025%=      5-min Rain = 0
KQU1 172057Z 14006KT 19/M02 A3009 RMK A01 T01871017  RH  025%=      5-min Rain = 0
KQU1 172058Z 12007KT 19/M02 A3009 RMK A01 T01881015  RH  025%=      5-min Rain = 0
KQU1 172059Z 14006KT 19/M02 A3008 RMK A01 T01891015  RH  025%=      5-min Rain = 0
KQU1 172100Z 14007KT 19/M02 A3008 RMK A01 T01901016  RH  025%=      5-min Rain = 0
KQU1 172101Z 14009KT 19/M02 A3008 RMK A01 T01911016  RH  025%=      5-min Rain = 0
KQU1 172102Z 13009KT 19/M02 A3008 RMK A01 T01921017  RH  024%=      5-min Rain = 0
KQU1 172103Z 15007KT 19/M02 A3008 RMK A01 T01921017  RH  024%=      5-min Rain = 0
KQU1 172104Z 16007KT 19/M02 A3008 RMK A01 T01921015  RH  025%=      5-min Rain = 0
KQU1 172105Z 16005KT 19/M02 A3008 RMK A01 T01911018  RH  024%=      5-min Rain = 0
KQU1 172106Z 13008KT 19/M02 A3008 RMK A01 T01901016  RH  025%=      5-min Rain = 0
KQU1 172107Z 12008KT 19/M02 A3008 RMK A01 T01901016  RH  025%=      5-min Rain = 0
KQU1 172108Z 11008KT 19/M02 A3008 RMK A01 T01901019  RH  024%=      5-min Rain = 0
KQU1 172109Z 10008KT 19/M02 A3008 RMK A01 T01881020  RH  024%=      5-min Rain = 0
KQU1 172110Z 09007KT 19/M02 A3008 RMK A01 T01861020  RH  025%=      5-min Rain = 0
KQU1 172111Z 11006KT 19/M02 A3008 RMK A01 T01861017  RH  025%=      5-min Rain = 0
KQU1 172112Z 11006KT 19/M02 A3008 RMK A01 T01871017  RH  025%=      5-min Rain = 0
KQU1 172113Z 12005KT 19/M02 A3008 RMK A01 T01881020  RH  024%=      5-min Rain = 0
KQU1 172114Z 11003KT 19/M02 A3008 RMK A01 T01881018  RH  025%=      5-min Rain = 0
KQU1 172115Z 12009KT 19/M02 A3008 RMK A01 T01891017  RH  025%=      5-min Rain = 0
KQU1 172116Z 11009KT 19/M02 A3008 RMK A01 T01891020  RH  024%=      5-min Rain = 0
KQU1 172117Z 12007KT 19/M02 A3008 RMK A01 T01871020  RH  024%=      5-min Rain = 0
KQU1 172118Z 13007KT 19/M02 A3008 RMK A01 T01871017  RH  025%=      5-min Rain = 0
KQU1 172119Z 15008KT 19/M02 A3008 RMK A01 T01891017  RH  025%=      5-min Rain = 0
KQU1 172120Z 13009KT 19/M02 A3008 RMK A01 T01901017  RH  025%=      5-min Rain = 0
KQU1 172121Z 12010KT 19/M02 A3008 RMK A01 T01901020  RH  024%=      5-min Rain = 0
KQU1 172122Z 13007KT 19/M02 A3008 RMK A01 T01901021  RH  024%=      5-min Rain = 0
KQU1 172123Z 12007KT 19/M02 A3008 RMK A01 T01901020  RH  024%=      5-min Rain = 0
KQU1 172124Z 11007KT 19/M02 A3008 RMK A01 T01901019  RH  024%=      5-min Rain = 0
KQU1 172125Z 12009KT 19/M02 A3008 RMK A01 T01901018  RH  024%=      5-min Rain = 0
KQU1 172126Z 12008KT 19/M02 A3008 RMK A01 T01901019  RH  024%=      5-min Rain = 0
KQU1 172127Z 13010KT 19/M02 A3008 RMK A01 T01901018  RH  024%=      5-min Rain = 0
KQU1 172128Z 13009KT 19/M02 A3008 RMK A01 T01901019  RH  024%=      5-min Rain = 0
KQU1 172129Z 12011KT 19/M02 A3008 RMK A01 T01891018  RH  024%=      5-min Rain = 0
KQU1 172130Z 13008KT 19/M02 A3008 RMK A01 T01891019  RH  024%=      5-min Rain = 0
KQU1 172131Z 12008KT 19/M02 A3008 RMK A01 T01911019  RH  024%=      5-min Rain = 0
KQU1 172132Z 14008KT 19/M02 A3008 RMK A01 T01901020  RH  024%=      5-min Rain = 0
KQU1 172133Z 16007KT 19/M02 A3008 RMK A01 T01901019  RH  024%=      5-min Rain = 0
KQU1 172134Z 16005KT 19/M02 A3008 RMK A01 T01891020  RH  024%=      5-min Rain = 0
KQU1 172135Z 13007KT 19/M02 A3008 RMK A01 T01891018  RH  025%=      5-min Rain = 0
KQU1 172136Z 13006KT 19/M02 A3008 RMK A01 T01901019  RH  024%=      5-min Rain = 0
KQU1 172137Z 13006KT 19/M02 A3008 RMK A01 T01911017  RH  024%=      5-min Rain = 0
KQU1 172138Z 13008KT 19/M02 A3008 RMK A01 T01921018  RH  024%=      5-min Rain = 0
KQU1 172139Z 15006KT 19/M02 A3008 RMK A01 T01921018  RH  024%=      5-min Rain = 0
KQU1 172140Z 14008KT 19/M02 A3008 RMK A01 T01921020  RH  024%=      5-min Rain = 0
KQU1 172141Z 13007KT 19/M02 A3008 RMK A01 T01911019  RH  024%=      5-min Rain = 0
KQU1 172142Z 13005KT 19/M02 A3008 RMK A01 T01921019  RH  024%=      5-min Rain = 0
KQU1 172143Z 13007KT 19/M02 A3008 RMK A01 T01931016  RH  024%=      5-min Rain = 0
KQU1 172144Z 13009KT 19/M02 A3008 RMK A01 T01941018  RH  024%=      5-min Rain = 0
KQU1 172145Z 13010KT 19/M02 A3008 RMK A01 T01941019  RH  024%=      5-min Rain = 0
KQU1 172146Z 14009KT 19/M02 A3008 RMK A01 T01931019  RH  024%=      5-min Rain = 0
KQU1 172147Z 13009KT 19/M02 A3008 RMK A01 T01931020  RH  024%=      5-min Rain = 0
KQU1 172148Z 13007KT 19/M02 A3008 RMK A01 T01921021  RH  023%=      5-min Rain = 0
KQU1 172149Z 15005KT 19/M02 A3008 RMK A01 T01921019  RH  024%=      5-min Rain = 0
KQU1 172150Z 15006KT 19/M02 A3008 RMK A01 T01931018  RH  024%=      5-min Rain = 0
KQU1 172151Z 13009KT 19/M02 A3008 RMK A01 T01931018  RH  024%=      5-min Rain = 0
KQU1 172152Z 14010KT 19/M02 A3008 RMK A01 T01941018  RH  024%=      5-min Rain = 0
KQU1 172153Z 14008KT 19/M02 A3008 RMK A01 T01941019  RH  024%=      5-min Rain = 0
KQU1 172154Z 14008KT 20/M02 A3008 RMK A01 T01951019  RH  023%=      5-min Rain = 0
KQU1 172155Z 15008KT 20/M02 A3008 RMK A01 T01951019  RH  024%=      5-min Rain = 0
KQU1 172156Z 14012KT 19/M02 A3008 RMK A01 T01941019  RH  024%=      5-min Rain = 0
KQU1 172157Z 14009KT 19/M02 A3008 RMK A01 T01941019  RH  024%=      5-min Rain = 0
KQU1 172158Z 15009KT 19/M02 A3008 RMK A01 T01941019  RH  024%=      5-min Rain = 0
KQU1 172159Z 13009KT 19/M02 A3008 RMK A01 T01931017  RH  024%=      5-min Rain = 0
KQU1 172200Z 12010KT 19/M02 A3008 RMK A01 T01941018  RH  024%=      5-min Rain = 0
KQU1 172201Z 13008KT 19/M02 A3008 RMK A01 T01931020  RH  024%=      5-min Rain = 0
KQU1 172202Z 13009KT 19/M02 A3008 RMK A01 T01931017  RH  024%=      5-min Rain = 0
KQU1 172203Z 12009KT 19/M02 A3008 RMK A01 T01921021  RH  024%=      5-min Rain = 0
KQU1 172204Z 13009KT 19/M02 A3008 RMK A01 T01901020  RH  024%=      5-min Rain = 0
KQU1 172205Z 13011KT 19/M02 A3008 RMK A01 T01901019  RH  024%=      5-min Rain = 0
KQU1 172206Z 12010KT 19/M02 A3008 RMK A01 T01901019  RH  024%=      5-min Rain = 0
KQU1 172207Z 14011KT 19/M02 A3008 RMK A01 T01901017  RH  025%=      5-min Rain = 0
KQU1 172208Z 14011KT 19/M02 A3008 RMK A01 T01901017  RH  025%=      5-min Rain = 0
KQU1 172209Z 14009G14KT 19/M02 A3008 RMK A01 T01901018  RH  024%=      5-min Rain = 0
KQU1 172210Z 14010KT 19/M02 A3008 RMK A01 T01901019  RH  024%=      5-min Rain = 0
KQU1 172211Z 13010KT 19/M02 A3008 RMK A01 T01901018  RH  024%=      5-min Rain = 0
KQU1 172212Z 13011KT 19/M02 A3008 RMK A01 T01891019  RH  024%=      5-min Rain = 0
KQU1 172213Z 13010KT 19/M02 A3008 RMK A01 T01891020  RH  024%=      5-min Rain = 0
KQU1 172214Z 13012KT 19/M02 A3008 RMK A01 T01881019  RH  024%=      5-min Rain = 0
KQU1 172215Z 13012KT 19/M02 A3008 RMK A01 T01871019  RH  025%=      5-min Rain = 0
KQU1 172216Z 13010KT 19/M02 A3008 RMK A01 T01861020  RH  025%=      5-min Rain = 0
KQU1 172217Z 13009KT 19/M02 A3008 RMK A01 T01861020  RH  025%=      5-min Rain = 0
KQU1 172218Z 14009KT 19/M02 A3008 RMK A01 T01861018  RH  025%=      5-min Rain = 0
KQU1 172219Z 13009KT 19/M02 A3008 RMK A01 T01861019  RH  025%=      5-min Rain = 0
KQU1 172220Z 14012KT 19/M02 A3008 RMK A01 T01871019  RH  025%=      5-min Rain = 0
KQU1 172221Z 14010KT 19/M02 A3008 RMK A01 T01871019  RH  025%=      5-min Rain = 0
KQU1 172222Z 14008KT 19/M02 A3007 RMK A01 T01871017  RH  025%=      5-min Rain = 0
KQU1 172223Z 14009KT 19/M02 A3007 RMK A01 T01881017  RH  025%=      5-min Rain = 0
KQU1 172224Z 14012KT 19/M02 A3007 RMK A01 T01881019  RH  025%=      5-min Rain = 0
KQU1 172225Z 15010KT 19/M02 A3007 RMK A01 T01871019  RH  025%=      5-min Rain = 0
KQU1 172226Z 14012KT 19/M02 A3007 RMK A01 T01871019  RH  025%=      5-min Rain = 0
KQU1 172227Z 14010KT 19/M02 A3007 RMK A01 T01861020  RH  025%=      5-min Rain = 0
KQU1 172228Z 14010KT 19/M02 A3007 RMK A01 T01861020  RH  025%=      5-min Rain = 0
KQU1 172229Z 14009KT 19/M02 A3007 RMK A01 T01851019  RH  025%=      5-min Rain = 0
KQU1 172230Z 14012KT 19/M02 A3007 RMK A01 T01851019  RH  025%=      5-min Rain = 0
KQU1 172231Z 14012KT 18/M02 A3007 RMK A01 T01841019  RH  025%=      5-min Rain = 0
KQU1 172232Z 14011KT 18/M02 A3007 RMK A01 T01841019  RH  025%=      5-min Rain = 0
KQU1 172233Z 14010KT 18/M02 A3007 RMK A01 T01841017  RH  026%=      5-min Rain = 0
KQU1 172234Z 14008KT 18/M02 A3007 RMK A01 T01841017  RH  025%=      5-min Rain = 0
KQU1 172235Z 14010KT 18/M02 A3007 RMK A01 T01841017  RH  026%=      5-min Rain = 0
KQU1 172236Z 13011KT 18/M02 A3007 RMK A01 T01841018  RH  025%=      5-min Rain = 0
KQU1 172237Z 13009KT 18/M02 A3007 RMK A01 T01841017  RH  025%=      5-min Rain = 0
KQU1 172238Z 13010KT 19/M02 A3007 RMK A01 T01851017  RH  025%=      5-min Rain = 0
KQU1 172239Z 14010KT 19/M02 A3007 RMK A01 T01861017  RH  025%=      5-min Rain = 0
KQU1 172240Z 14011KT 19/M02 A3007 RMK A01 T01861017  RH  025%=      5-min Rain = 0
KQU1 172241Z 14010KT 19/M02 A3007 RMK A01 T01861017  RH  025%=      5-min Rain = 0
KQU1 172242Z 14012KT 19/M02 A3007 RMK A01 T01861017  RH  025%=      5-min Rain = 0
KQU1 172243Z 14011KT 19/M02 A3007 RMK A01 T01861019  RH  025%=      5-min Rain = 0
KQU1 172244Z 14010KT 19/M02 A3007 RMK A01 T01861017  RH  025%=      5-min Rain = 0
KQU1 172245Z 14010KT 19/M02 A3007 RMK A01 T01861016  RH  025%=      5-min Rain = 0
KQU1 172246Z 13009KT 19/M02 A3007 RMK A01 T01861016  RH  025%=      5-min Rain = 0
KQU1 172247Z 14010KT 19/M02 A3007 RMK A01 T01871015  RH  025%=      5-min Rain = 0
KQU1 172248Z 14010KT 19/M02 A3007 RMK A01 T01871015  RH  025%=      5-min Rain = 0
KQU1 172249Z 14009KT 19/M02 A3007 RMK A01 T01861015  RH  026%=      5-min Rain = 0
KQU1 172250Z 14009KT 19/M02 A3007 RMK A01 T01861015  RH  026%=      5-min Rain = 0
KQU1 172251Z 13010KT 19/M02 A3007 RMK A01 T01861015  RH  026%=      5-min Rain = 0
KQU1 172252Z 14009KT 19/M02 A3007 RMK A01 T01861016  RH  025%=      5-min Rain = 0
KQU1 172253Z 14011KT 19/M02 A3007 RMK A01 T01861015  RH  026%=      5-min Rain = 0
KQU1 172254Z 14011KT 19/M01 A3007 RMK A01 T01851014  RH  026%=      5-min Rain = 0
KQU1 172255Z 14009KT 19/M01 A3007 RMK A01 T01851013  RH  026%=      5-min Rain = 0
KQU1 172256Z 13009KT 19/M01 A3007 RMK A01 T01851014  RH  026%=      5-min Rain = 0
KQU1 172257Z 14009KT 19/M01 A3007 RMK A01 T01851014  RH  026%=      5-min Rain = 0
KQU1 172258Z 13011KT 19/M02 A3007 RMK A01 T01851015  RH  026%=      5-min Rain = 0
KQU1 172259Z 13010KT 18/M02 A3006 RMK A01 T01841015  RH  026%=      5-min Rain = 0
KQU1 172300Z 13010KT 18/M02 A3006 RMK A01 T01831015  RH  026%=      5-min Rain = 0
KQU1 172301Z 14010KT 18/M01 A3006 RMK A01 T01831014  RH  026%=      5-min Rain = 0
KQU1 172302Z 13010KT 18/M02 A3006 RMK A01 T01831015  RH  026%=      5-min Rain = 0
KQU1 172303Z 14009KT 18/M02 A3006 RMK A01 T01821015  RH  026%=      5-min Rain = 0
KQU1 172304Z 14009KT 18/M02 A3006 RMK A01 T01821016  RH  026%=      5-min Rain = 0
KQU1 172305Z 14010KT 18/M02 A3006 RMK A01 T01811015  RH  026%=      5-min Rain = 0
KQU1 172306Z 14011KT 18/M02 A3006 RMK A01 T01811016  RH  026%=      5-min Rain = 0
KQU1 172307Z 14010KT 18/M02 A3006 RMK A01 T01811015  RH  026%=      5-min Rain = 0
KQU1 172308Z 14011KT 18/M02 A3006 RMK A01 T01801015  RH  027%=      5-min Rain = 0
KQU1 172309Z 14010KT 18/M01 A3006 RMK A01 T01791014  RH  027%=      5-min Rain = 0
KQU1 172310Z 14010KT 18/M01 A3006 RMK A01 T01791014  RH  027%=      5-min Rain = 0
KQU1 172311Z 14011KT 18/M01 A3006 RMK A01 T01781014  RH  027%=      5-min Rain = 0
KQU1 172312Z 15010KT 18/M01 A3006 RMK A01 T01771014  RH  027%=      5-min Rain = 0
KQU1 172313Z 15010KT 18/M01 A3006 RMK A01 T01771013  RH  027%=      5-min Rain = 0
KQU1 172314Z 14011KT 18/M01 A3006 RMK A01 T01761013  RH  028%=      5-min Rain = 0
KQU1 172315Z 14011KT 18/M01 A3006 RMK A01 T01751013  RH  028%=      5-min Rain = 0
KQU1 172316Z 14011KT 17/M01 A3006 RMK A01 T01741013  RH  028%=      5-min Rain = 0
KQU1 172317Z 14010KT 17/M01 A3006 RMK A01 T01741013  RH  028%=      5-min Rain = 0
KQU1 172318Z 15010KT 17/M01 A3006 RMK A01 T01731013  RH  028%=      5-min Rain = 0
KQU1 172319Z 15010KT 17/M01 A3006 RMK A01 T01721013  RH  028%=      5-min Rain = 0
KQU1 172320Z 15011KT 17/M01 A3006 RMK A01 T01711013  RH  028%=      5-min Rain = 0
KQU1 172321Z 14010KT 17/M01 A3006 RMK A01 T01701013  RH  029%=      5-min Rain = 0
KQU1 172322Z 15010KT 17/M01 A3006 RMK A01 T01691014  RH  029%=      5-min Rain = 0
KQU1 172323Z 14011KT 17/M01 A3006 RMK A01 T01691014  RH  029%=      5-min Rain = 0
KQU1 172324Z 14010KT 17/M01 A3006 RMK A01 T01681013  RH  029%=      5-min Rain = 0
KQU1 172325Z 14010KT 17/M01 A3006 RMK A01 T01681013  RH  029%=      5-min Rain = 0
KQU1 172326Z 14010KT 17/M01 A3006 RMK A01 T01671013  RH  029%=      5-min Rain = 0
KQU1 172327Z 14010KT 17/M01 A3006 RMK A01 T01671013  RH  029%=      5-min Rain = 0
KQU1 172328Z 15010KT 17/M01 A3006 RMK A01 T01661012  RH  029%=      5-min Rain = 0
KQU1 172329Z 15009KT 17/M01 A3006 RMK A01 T01661012  RH  030%=      5-min Rain = 0
KQU1 172330Z 15009KT 17/M01 A3006 RMK A01 T01651012  RH  030%=      5-min Rain = 0
KQU1 172331Z 15009KT 16/M01 A3006 RMK A01 T01641012  RH  030%=      5-min Rain = 0
KQU1 172332Z 15008KT 16/M01 A3006 RMK A01 T01631012  RH  030%=      5-min Rain = 0
KQU1 172333Z 15009KT 16/M01 A3006 RMK A01 T01611012  RH  031%=      5-min Rain = 0
KQU1 172334Z 15009KT 16/M01 A3006 RMK A01 T01591012  RH  031%=      5-min Rain = 0
KQU1 172335Z 15009KT 16/M01 A3006 RMK A01 T01571012  RH  031%=      5-min Rain = 0
KQU1 172336Z 15008KT 16/M01 A3006 RMK A01 T01561012  RH  032%=      5-min Rain = 0
KQU1 172337Z 15008KT 16/M01 A3006 RMK A01 T01551012  RH  032%=      5-min Rain = 0
KQU1 172338Z 15008KT 15/M01 A3006 RMK A01 T01541011  RH  032%=      5-min Rain = 0
KQU1 172339Z 15008KT 15/M01 A3006 RMK A01 T01541011  RH  032%=      5-min Rain = 0
KQU1 172340Z 15009KT 15/M01 A3006 RMK A01 T01531011  RH  032%=      5-min Rain = 0
KQU1 172341Z 15009KT 15/M01 A3006 RMK A01 T01521011  RH  033%=      5-min Rain = 0
KQU1 172342Z 15009KT 15/M01 A3006 RMK A01 T01501011  RH  033%=      5-min Rain = 0
KQU1 172343Z 15009KT 15/M01 A3006 RMK A01 T01491011  RH  033%=      5-min Rain = 0
KQU1 172344Z 15009KT 15/M01 A3006 RMK A01 T01481011  RH  034%=      5-min Rain = 0
KQU1 172345Z 15009KT 15/M01 A3006 RMK A01 T01471011  RH  034%=      5-min Rain = 0
KQU1 172346Z 15010KT 15/M01 A3006 RMK A01 T01451010  RH  034%=      5-min Rain = 0
KQU1 172347Z 15010KT 14/M01 A3006 RMK A01 T01441010  RH  035%=      5-min Rain = 0
KQU1 172348Z 15010KT 14/M01 A3006 RMK A01 T01431009  RH  035%=      5-min Rain = 0
KQU1 172349Z 15010KT 14/M01 A3006 RMK A01 T01421009  RH  035%=      5-min Rain = 0
KQU1 172350Z 15009KT 14/M01 A3006 RMK A01 T01411008  RH  036%=      5-min Rain = 0
KQU1 172351Z 15010KT 14/M01 A3006 RMK A01 T01411008  RH  036%=      5-min Rain = 0
KQU1 172352Z 15010KT 14/M01 A3006 RMK A01 T01401007  RH  036%=      5-min Rain = 0
KQU1 172353Z 15009KT 14/M01 A3006 RMK A01 T01391007  RH  036%=      5-min Rain = 0
KQU1 172354Z 15009KT 14/M01 A3006 RMK A01 T01381007  RH  037%=      5-min Rain = 0
KQU1 172355Z 15009KT 14/M01 A3006 RMK A01 T01371007  RH  037%=      5-min Rain = 0
KQU1 172356Z 15009KT 14/M01 A3006 RMK A01 T01361006  RH  037%=      5-min Rain = 0
KQU1 172357Z 15008KT 14/M01 A3006 RMK A01 T01351006  RH  038%=      5-min Rain = 0
KQU1 172358Z 15008KT 13/M01 A3006 RMK A01 T01341005  RH  038%=      5-min Rain = 0
KQU1 172359Z 15009KT 13/M01 A3006 RMK A01 T01331005  RH  038%=      5-min Rain = 0
KQU1 180000Z 15008KT 13/M01 A3006 RMK A01 T01321005  RH  039%=      5-min Rain = 0
KQU1 180001Z 15008KT 13/M01 A3005 RMK A01 T01311005  RH  039%=      5-min Rain = 0
KQU1 180002Z 15009KT 13/M01 A3005 RMK A01 T01301005  RH  039%=      5-min Rain = 0
KQU1 180003Z 15009KT 13/M01 A3005 RMK A01 T01291005  RH  040%=      5-min Rain = 0
KQU1 180004Z 15009KT 13/M01 A3005 RMK A01 T01281005  RH  040%=      5-min Rain = 0
KQU1 180005Z 15008KT 13/M00 A3005 RMK A01 T01271004  RH  040%=      5-min Rain = 0
KQU1 180006Z 15008KT 13/M00 A3005 RMK A01 T01261004  RH  041%=      5-min Rain = 0
KQU1 180007Z 15008KT 13/M01 A3005 RMK A01 T01251005  RH  041%=      5-min Rain = 0
KQU1 180008Z 15008KT 12/M01 A3005 RMK A01 T01241005  RH  041%=      5-min Rain = 0
KQU1 180009Z 15008KT 12/M00 A3005 RMK A01 T01231004  RH  041%=      5-min Rain = 0
KQU1 180010Z 15008KT 12/M00 A3006 RMK A01 T01221004  RH  042%=      5-min Rain = 0
KQU1 180011Z 15008KT 12/M00 A3006 RMK A01 T01211004  RH  042%=      5-min Rain = 0
KQU1 180012Z 15008KT 12/M00 A3006 RMK A01 T01201004  RH  042%=      5-min Rain = 0
KQU1 180013Z 16008KT 12/M00 A3006 RMK A01 T01201003  RH  043%=      5-min Rain = 0
KQU1 180014Z 16008KT 12/M00 A3006 RMK A01 T01201003  RH  043%=      5-min Rain = 0
KQU1 180015Z 15008KT 12/M00 A3006 RMK A01 T01191003  RH  043%=      5-min Rain = 0
KQU1 180016Z 16008KT 12/M00 A3006 RMK A01 T01181003  RH  043%=      5-min Rain = 0
KQU1 180017Z 16008KT 12/M00 A3006 RMK A01 T01171003  RH  043%=      5-min Rain = 0
KQU1 180018Z 16008KT 12/M00 A3006 RMK A01 T01161003  RH  044%=      5-min Rain = 0
KQU1 180019Z 16008KT 12/M00 A3006 RMK A01 T01161002  RH  044%=      5-min Rain = 0
KQU1 180020Z 16008KT 12/M00 A3006 RMK A01 T01151001  RH  045%=      5-min Rain = 0
KQU1 180021Z 17008KT 12/00 A3006 RMK A01 T011600-0  RH  045%=      5-min Rain = 0
KQU1 180022Z 16008KT 12/00 A3006 RMK A01 T01160000  RH  045%=      5-min Rain = 0
KQU1 180023Z 16008KT 12/00 A3006 RMK A01 T01160000  RH  045%=      5-min Rain = 0
KQU1 180024Z 17008KT 12/00 A3006 RMK A01 T01160000  RH  045%=      5-min Rain = 0
KQU1 180025Z 17008KT 12/00 A3006 RMK A01 T01160001  RH  045%=      5-min Rain = 0
KQU1 180026Z 17008KT 12/00 A3006 RMK A01 T01160001  RH  045%=      5-min Rain = 0
KQU1 180027Z 17008KT 12/00 A3006 RMK A01 T01160001  RH  045%=      5-min Rain = 0
KQU1 180028Z 17008KT 12/00 A3006 RMK A01 T01160001  RH  045%=      5-min Rain = 0
KQU1 180029Z 17008KT 12/00 A3006 RMK A01 T01170002  RH  045%=      5-min Rain = 0
KQU1 180030Z 17008KT 12/00 A3006 RMK A01 T01170001  RH  045%=      5-min Rain = 0
KQU1 180031Z 17007KT 12/00 A3006 RMK A01 T01170002  RH  045%=      5-min Rain = 0
KQU1 180032Z 17007KT 12/00 A3006 RMK A01 T01170001  RH  045%=      5-min Rain = 0
KQU1 180033Z 17008KT 12/00 A3006 RMK A01 T01170002  RH  045%=      5-min Rain = 0
KQU1 180034Z 17007KT 12/00 A3006 RMK A01 T01170002  RH  045%=      5-min Rain = 0
KQU1 180035Z 17007KT 12/00 A3006 RMK A01 T01160002  RH  045%=      5-min Rain = 0
KQU1 180036Z 17007KT 12/00 A3006 RMK A01 T01160002  RH  046%=      5-min Rain = 0
KQU1 180037Z 17007KT 12/00 A3006 RMK A01 T01150002  RH  046%=      5-min Rain = 0
KQU1 180038Z 17007KT 12/00 A3006 RMK A01 T01150002  RH  046%=      5-min Rain = 0
KQU1 180039Z 17007KT 11/00 A3006 RMK A01 T01140003  RH  046%=      5-min Rain = 0
KQU1 180040Z 17006KT 11/00 A3006 RMK A01 T01140003  RH  046%=      5-min Rain = 0
KQU1 180041Z 17007KT 11/00 A3006 RMK A01 T01140003  RH  046%=      5-min Rain = 0
KQU1 180042Z 17006KT 11/00 A3006 RMK A01 T01130002  RH  046%=      5-min Rain = 0
KQU1 180043Z 18006KT 11/00 A3006 RMK A01 T01120002  RH  047%=      5-min Rain = 0
KQU1 180044Z 18006KT 11/00 A3006 RMK A01 T01110003  RH  047%=      5-min Rain = 0
KQU1 180045Z 17006KT 11/00 A3006 RMK A01 T01110003  RH  047%=      5-min Rain = 0
KQU1 180046Z 18007KT 11/00 A3006 RMK A01 T01100003  RH  048%=      5-min Rain = 0
KQU1 180047Z 18006KT 11/00 A3006 RMK A01 T01100003  RH  048%=      5-min Rain = 0
KQU1 180048Z 18006KT 11/00 A3006 RMK A01 T01090003  RH  048%=      5-min Rain = 0
KQU1 180049Z 18006KT 11/00 A3006 RMK A01 T01090003  RH  048%=      5-min Rain = 0
KQU1 180050Z 18006KT 11/00 A3006 RMK A01 T01080002  RH  048%=      5-min Rain = 0
KQU1 180051Z 18006KT 11/00 A3006 RMK A01 T01070002  RH  048%=      5-min Rain = 0
KQU1 180052Z 19006KT 11/00 A3006 RMK A01 T01050002  RH  049%=      5-min Rain = 0
KQU1 180053Z 18006KT 11/00 A3006 RMK A01 T01050003  RH  049%=      5-min Rain = 0
KQU1 180054Z 19006KT 10/00 A3006 RMK A01 T01040002  RH  049%=      5-min Rain = 0
KQU1 180055Z 19005KT 10/00 A3006 RMK A01 T01030002  RH  049%=      5-min Rain = 0
KQU1 180056Z 19005KT 10/00 A3006 RMK A01 T01020002  RH  050%=      5-min Rain = 0
KQU1 180057Z 19006KT 10/00 A3006 RMK A01 T01020003  RH  050%=      5-min Rain = 0
KQU1 180058Z 19005KT 10/00 A3006 RMK A01 T01020003  RH  050%=      5-min Rain = 0
KQU1 180059Z 19006KT 10/00 A3006 RMK A01 T01020003  RH  050%=      5-min Rain = 0
KQU1 180100Z 19006KT 10/00 A3006 RMK A01 T01020003  RH  050%=      5-min Rain = 0
KQU1 180101Z 19006KT 10/00 A3006 RMK A01 T01010003  RH  051%=      5-min Rain = 0
KQU1 180102Z 19006KT 10/00 A3006 RMK A01 T01010003  RH  051%=      5-min Rain = 0
KQU1 180103Z 19006KT 10/00 A3006 RMK A01 T01010004  RH  051%=      5-min Rain = 0
KQU1 180104Z 18006KT 10/00 A3006 RMK A01 T01000004  RH  051%=      5-min Rain = 0
KQU1 180105Z 19006KT 10/00 A3006 RMK A01 T01000004  RH  051%=      5-min Rain = 0
KQU1 180106Z 18007KT 10/01 A3006 RMK A01 T01010005  RH  051%=      5-min Rain = 0
KQU1 180107Z 18007KT 10/01 A3006 RMK A01 T01020005  RH  051%=      5-min Rain = 0
KQU1 180108Z 18006KT 10/01 A3006 RMK A01 T01030005  RH  051%=      5-min Rain = 0
KQU1 180109Z 18007KT 10/01 A3006 RMK A01 T01030005  RH  050%=      5-min Rain = 0
KQU1 180110Z 19007KT 10/00 A3006 RMK A01 T01030004  RH  050%=      5-min Rain = 0
KQU1 180111Z 18007KT 10/00 A3006 RMK A01 T01020004  RH  051%=      5-min Rain = 0
KQU1 180112Z 19007KT 10/00 A3006 RMK A01 T01010004  RH  051%=      5-min Rain = 0
KQU1 180113Z 19007KT 10/00 A3006 RMK A01 T01000004  RH  051%=      5-min Rain = 0
KQU1 180114Z 19007KT 10/01 A3006 RMK A01 T01000005  RH  052%=      5-min Rain = 0
KQU1 180115Z 18007KT 10/00 A3006 RMK A01 T00990004  RH  052%=      5-min Rain = 0
KQU1 180116Z 18007KT 10/01 A3006 RMK A01 T00990005  RH  052%=      5-min Rain = 0
KQU1 180117Z 18008KT 10/01 A3007 RMK A01 T00990005  RH  052%=      5-min Rain = 0
KQU1 180118Z 19007KT 10/01 A3007 RMK A01 T00990005  RH  052%=      5-min Rain = 0
KQU1 180119Z 19007KT 10/01 A3007 RMK A01 T00990005  RH  052%=      5-min Rain = 0
KQU1 180120Z 19006KT 10/00 A3007 RMK A01 T00990004  RH  052%=      5-min Rain = 0
KQU1 180121Z 19007KT 10/00 A3007 RMK A01 T00980003  RH  052%=      5-min Rain = 0
KQU1 180122Z 19006KT 10/00 A3007 RMK A01 T00960003  RH  052%=      5-min Rain = 0
KQU1 180123Z 20006KT 10/00 A3007 RMK A01 T00950003  RH  052%=      5-min Rain = 0
KQU1 180124Z 20007KT 09/00 A3007 RMK A01 T00940002  RH  053%=      5-min Rain = 0
KQU1 180125Z 19007KT 09/00 A3007 RMK A01 T00930003  RH  053%=      5-min Rain = 0
KQU1 180126Z 19007KT 09/00 A3007 RMK A01 T00920004  RH  054%=      5-min Rain = 0
KQU1 180127Z 18007KT 09/00 A3007 RMK A01 T00930004  RH  054%=      5-min Rain = 0
KQU1 180128Z 18007KT 09/00 A3007 RMK A01 T00920003  RH  054%=      5-min Rain = 0
KQU1 180129Z 18007KT 09/00 A3007 RMK A01 T00910003  RH  054%=      5-min Rain = 0
KQU1 180130Z 18008KT 09/00 A3007 RMK A01 T00900004  RH  055%=      5-min Rain = 0
KQU1 180131Z 19008KT 09/00 A3007 RMK A01 T00890004  RH  055%=      5-min Rain = 0
KQU1 180132Z 19008KT 09/00 A3007 RMK A01 T00880004  RH  055%=      5-min Rain = 0
KQU1 180133Z 19008KT 09/00 A3007 RMK A01 T00880003  RH  055%=      5-min Rain = 0
KQU1 180134Z 19008KT 09/00 A3007 RMK A01 T00870003  RH  056%=      5-min Rain = 0
KQU1 180135Z 20008KT 09/00 A3007 RMK A01 T00860003  RH  056%=      5-min Rain = 0
KQU1 180136Z 20008KT 09/00 A3007 RMK A01 T00850003  RH  056%=      5-min Rain = 0
KQU1 180137Z 20008KT 09/00 A3007 RMK A01 T00850004  RH  056%=      5-min Rain = 0
KQU1 180138Z 19009KT 09/00 A3007 RMK A01 T00850004  RH  057%=      5-min Rain = 0
KQU1 180139Z 19009KT 09/00 A3007 RMK A01 T00850004  RH  057%=      5-min Rain = 0
KQU1 180140Z 19009KT 09/00 A3007 RMK A01 T00850004  RH  057%=      5-min Rain = 0
KQU1 180141Z 19009KT 09/00 A3007 RMK A01 T00850004  RH  057%=      5-min Rain = 0
KQU1 180142Z 19009KT 08/00 A3007 RMK A01 T00840004  RH  057%=      5-min Rain = 0
KQU1 180143Z 19009KT 08/00 A3007 RMK A01 T00840004  RH  057%=      5-min Rain = 0
KQU1 180144Z 19009KT 08/00 A3007 RMK A01 T00830003  RH  057%=      5-min Rain = 0
KQU1 180145Z 20009KT 08/00 A3007 RMK A01 T00820004  RH  058%=      5-min Rain = 0
KQU1 180146Z 19010KT 08/00 A3007 RMK A01 T00820004  RH  058%=      5-min Rain = 0
KQU1 180147Z 19010KT 08/00 A3007 RMK A01 T00820004  RH  058%=      5-min Rain = 0
KQU1 180148Z 19010KT 08/01 A3007 RMK A01 T00820005  RH  058%=      5-min Rain = 0
KQU1 180149Z 20010KT 08/01 A3007 RMK A01 T00830005  RH  058%=      5-min Rain = 0
KQU1 180150Z 20010KT 08/01 A3007 RMK A01 T00830005  RH  058%=      5-min Rain = 0
KQU1 180151Z 19010KT 08/01 A3007 RMK A01 T00840006  RH  058%=      5-min Rain = 0
KQU1 180152Z 19010KT 08/01 A3007 RMK A01 T00840006  RH  058%=      5-min Rain = 0
KQU1 180153Z 19009KT 08/01 A3007 RMK A01 T00840006  RH  058%=      5-min Rain = 0
KQU1 180154Z 19009KT 08/01 A3007 RMK A01 T00830005  RH  058%=      5-min Rain = 0
KQU1 180155Z 19009KT 08/01 A3007 RMK A01 T00830006  RH  058%=      5-min Rain = 0
KQU1 180156Z 19009KT 08/01 A3007 RMK A01 T00830006  RH  058%=      5-min Rain = 0
KQU1 180157Z 19009KT 08/01 A3007 RMK A01 T00820005  RH  058%=      5-min Rain = 0
KQU1 180158Z 19008KT 08/01 A3007 RMK A01 T00820005  RH  058%=      5-min Rain = 0
KQU1 180159Z 20008KT 08/00 A3007 RMK A01 T00810004  RH  059%=      5-min Rain = 0
KQU1 180200Z 20008KT 08/00 A3007 RMK A01 T00800004  RH  059%=      5-min Rain = 0
KQU1 180201Z 19008KT 08/00 A3007 RMK A01 T00780003  RH  059%=      5-min Rain = 0
KQU1 180202Z 19009KT 08/00 A3006 RMK A01 T00770003  RH  060%=      5-min Rain = 0
KQU1 180203Z 18008KT 08/00 A3006 RMK A01 T00760003  RH  060%=      5-min Rain = 0
KQU1 180204Z 19009KT 08/00 A3006 RMK A01 T00750003  RH  060%=      5-min Rain = 0
KQU1 180205Z 19009KT 07/00 A3006 RMK A01 T00740004  RH  061%=      5-min Rain = 0
KQU1 180206Z 19009KT 07/00 A3006 RMK A01 T00740004  RH  061%=      5-min Rain = 0
KQU1 180207Z 19009KT 07/00 A3006 RMK A01 T00740004  RH  061%=      5-min Rain = 0
KQU1 180208Z 19008KT 07/00 A3006 RMK A01 T00730004  RH  061%=      5-min Rain = 0
KQU1 180209Z 19009KT 07/01 A3006 RMK A01 T00730005  RH  062%=      5-min Rain = 0
KQU1 180210Z 19009KT 07/01 A3006 RMK A01 T00740005  RH  062%=      5-min Rain = 0
KQU1 180211Z 20009KT 07/01 A3006 RMK A01 T00740005  RH  062%=      5-min Rain = 0
KQU1 180212Z 20009KT 07/01 A3006 RMK A01 T00740005  RH  062%=      5-min Rain = 0
KQU1 180213Z 19009KT 07/01 A3006 RMK A01 T00740005  RH  062%=      5-min Rain = 0
KQU1 180214Z 19009KT 07/01 A3006 RMK A01 T00740006  RH  062%=      5-min Rain = 0
KQU1 180215Z 19009KT 07/01 A3006 RMK A01 T00740006  RH  062%=      5-min Rain = 0
KQU1 180216Z 19009KT 07/01 A3006 RMK A01 T00740006  RH  062%=      5-min Rain = 0
KQU1 180217Z 19009KT 07/01 A3006 RMK A01 T00740006  RH  062%=      5-min Rain = 0
KQU1 180218Z 19009KT 07/01 A3006 RMK A01 T00740006  RH  062%=      5-min Rain = 0
KQU1 180219Z 19009KT 07/01 A3006 RMK A01 T00740006  RH  062%=      5-min Rain = 0
KQU1 180220Z 19008KT 07/01 A3005 RMK A01 T00730005  RH  062%=      5-min Rain = 0
KQU1 180221Z 19008KT 07/01 A3005 RMK A01 T00730005  RH  062%=      5-min Rain = 0
KQU1 180222Z 19009KT 07/00 A3005 RMK A01 T00710004  RH  062%=      5-min Rain = 0
KQU1 180223Z 19009KT 07/00 A3005 RMK A01 T00700004  RH  063%=      5-min Rain = 0
KQU1 180224Z 19009KT 07/00 A3005 RMK A01 T00690004  RH  063%=      5-min Rain = 0
KQU1 180225Z 19009KT 07/00 A3005 RMK A01 T00690004  RH  063%=      5-min Rain = 0
KQU1 180226Z 19009KT 07/00 A3005 RMK A01 T00680004  RH  063%=      5-min Rain = 0
KQU1 180227Z 19009KT 07/00 A3005 RMK A01 T00680003  RH  063%=      5-min Rain = 0
KQU1 180228Z 19009KT 07/00 A3005 RMK A01 T00680004  RH  063%=      5-min Rain = 0
KQU1 180229Z 19010KT 07/00 A3005 RMK A01 T00680003  RH  063%=      5-min Rain = 0
KQU1 180230Z 19010KT 07/00 A3005 RMK A01 T00680004  RH  063%=      5-min Rain = 0
KQU1 180231Z 19010KT 07/00 A3005 RMK A01 T00690003  RH  063%=      5-min Rain = 0
KQU1 180232Z 19010KT 07/00 A3005 RMK A01 T00690003  RH  063%=      5-min Rain = 0
KQU1 180233Z 19010KT 07/00 A3005 RMK A01 T00690002  RH  063%=      5-min Rain = 0
KQU1 180234Z 19010KT 07/00 A3005 RMK A01 T00680002  RH  063%=      5-min Rain = 0
KQU1 180235Z 19010KT 07/00 A3005 RMK A01 T00680002  RH  063%=      5-min Rain = 0
KQU1 180236Z 19010KT 07/00 A3005 RMK A01 T00670001  RH  063%=      5-min Rain = 0
KQU1 180237Z 20010KT 07/00 A3005 RMK A01 T00670001  RH  063%=      5-min Rain = 0
KQU1 180238Z 20010KT 07/00 A3005 RMK A01 T00670001  RH  063%=      5-min Rain = 0
KQU1 180239Z 20011KT 07/00 A3005 RMK A01 T00670002  RH  063%=      5-min Rain = 0
KQU1 180240Z 20011KT 07/00 A3005 RMK A01 T00680002  RH  063%=      5-min Rain = 0
KQU1 180241Z 20011KT 07/00 A3005 RMK A01 T00690003  RH  063%=      5-min Rain = 0
KQU1 180242Z 20011KT 07/00 A3005 RMK A01 T00700003  RH  062%=      5-min Rain = 0
KQU1 180243Z 20011KT 07/00 A3005 RMK A01 T00710003  RH  062%=      5-min Rain = 0
KQU1 180244Z 20011KT 07/00 A3005 RMK A01 T00720003  RH  062%=      5-min Rain = 0
KQU1 180245Z 21010KT 07/00 A3005 RMK A01 T00730004  RH  061%=      5-min Rain = 0
KQU1 180246Z 21010KT 07/00 A3005 RMK A01 T00730003  RH  061%=      5-min Rain = 0
KQU1 180247Z 21009KT 07/00 A3005 RMK A01 T00720002  RH  061%=      5-min Rain = 0
KQU1 180248Z 21010KT 07/00 A3005 RMK A01 T00710001  RH  061%=      5-min Rain = 0
KQU1 180249Z 21010KT 07/00 A3005 RMK A01 T00690001  RH  062%=      5-min Rain = 0
KQU1 180250Z 21011KT 07/00 A3005 RMK A01 T00680001  RH  062%=      5-min Rain = 0
KQU1 180251Z 21010KT 07/00 A3005 RMK A01 T00680002  RH  063%=      5-min Rain = 0
KQU1 180252Z 21009KT 07/00 A3005 RMK A01 T00680002  RH  063%=      5-min Rain = 0
KQU1 180253Z 22010KT 07/00 A3005 RMK A01 T00680002  RH  063%=      5-min Rain = 0
KQU1 180254Z 22011KT 07/00 A3005 RMK A01 T00680004  RH  063%=      5-min Rain = 0
KQU1 180255Z 22010KT 07/01 A3005 RMK A01 T00700005  RH  063%=      5-min Rain = 0
KQU1 180256Z 22010KT 07/01 A3005 RMK A01 T00720006  RH  063%=      5-min Rain = 0
KQU1 180257Z 22010KT 07/01 A3005 RMK A01 T00740007  RH  063%=      5-min Rain = 0
KQU1 180258Z 21011KT 08/01 A3005 RMK A01 T00750007  RH  062%=      5-min Rain = 0
KQU1 180259Z 21011KT 08/01 A3004 RMK A01 T00770007  RH  061%=      5-min Rain = 0
KQU1 180300Z 21011KT 08/01 A3004 RMK A01 T00780007  RH  061%=      5-min Rain = 0
KQU1 180301Z 21011KT 08/01 A3004 RMK A01 T00780007  RH  061%=      5-min Rain = 0
KQU1 180302Z 21012KT 08/01 A3004 RMK A01 T00790008  RH  061%=      5-min Rain = 0
KQU1 180303Z 21012KT 08/01 A3004 RMK A01 T00800008  RH  060%=      5-min Rain = 0
KQU1 180304Z 21012KT 08/01 A3004 RMK A01 T00810008  RH  060%=      5-min Rain = 0
KQU1 180305Z 21012KT 08/01 A3004 RMK A01 T00820008  RH  060%=      5-min Rain = 0
KQU1 180306Z 21011KT 08/01 A3004 RMK A01 T00820008  RH  060%=      5-min Rain = 0
KQU1 180307Z 21011KT 08/01 A3004 RMK A01 T00820008  RH  060%=      5-min Rain = 0
KQU1 180308Z 21011KT 08/01 A3004 RMK A01 T00810008  RH  060%=      5-min Rain = 0
KQU1 180309Z 21012KT 08/01 A3004 RMK A01 T00810008  RH  060%=      5-min Rain = 0
KQU1 180310Z 21012KT 08/01 A3004 RMK A01 T00800008  RH  060%=      5-min Rain = 0
KQU1 180311Z 21012KT 08/01 A3004 RMK A01 T00800009  RH  060%=      5-min Rain = 0
KQU1 180312Z 21012KT 08/01 A3003 RMK A01 T00800008  RH  060%=      5-min Rain = 0
KQU1 180313Z 21012KT 08/01 A3003 RMK A01 T00790008  RH  061%=      5-min Rain = 0
KQU1 180314Z 21012KT 08/01 A3003 RMK A01 T00790009  RH  061%=      5-min Rain = 0
KQU1 180315Z 21012KT 08/01 A3003 RMK A01 T00790009  RH  061%=      5-min Rain = 0
KQU1 180316Z 21012KT 08/01 A3003 RMK A01 T00790008  RH  061%=      5-min Rain = 0
KQU1 180317Z 21011KT 08/01 A3003 RMK A01 T00780008  RH  061%=      5-min Rain = 0
KQU1 180318Z 21011KT 08/01 A3003 RMK A01 T00760007  RH  062%=      5-min Rain = 0
KQU1 180319Z 20011KT 07/01 A3003 RMK A01 T00740007  RH  062%=      5-min Rain = 0
KQU1 180320Z 21012KT 07/01 A3003 RMK A01 T00720006  RH  063%=      5-min Rain = 0
KQU1 180321Z 20013KT 07/01 A3003 RMK A01 T00710006  RH  064%=      5-min Rain = 0
KQU1 180322Z 20012KT 07/01 A3003 RMK A01 T00700007  RH  064%=      5-min Rain = 0
KQU1 180323Z 20011KT 07/01 A3003 RMK A01 T00700007  RH  064%=      5-min Rain = 0
KQU1 180324Z 20011KT 07/01 A3003 RMK A01 T00690007  RH  064%=      5-min Rain = 0
KQU1 180325Z 20012KT 07/01 A3003 RMK A01 T00680006  RH  065%=      5-min Rain = 0
KQU1 180326Z 21012KT 07/01 A3003 RMK A01 T00680007  RH  065%=      5-min Rain = 0
KQU1 180327Z 20012KT 07/01 A3003 RMK A01 T00700010  RH  066%=      5-min Rain = 0
KQU1 180328Z 20011KT 07/01 A3003 RMK A01 T00720010  RH  065%=      5-min Rain = 0
KQU1 180329Z 20011KT 07/01 A3003 RMK A01 T00720009  RH  064%=      5-min Rain = 0
KQU1 180330Z 20012KT 07/01 A3003 RMK A01 T00710008  RH  064%=      5-min Rain = 0
KQU1 180331Z 20012KT 07/01 A3003 RMK A01 T00700008  RH  065%=      5-min Rain = 0
KQU1 180332Z 20012KT 07/01 A3003 RMK A01 T00690008  RH  065%=      5-min Rain = 0
KQU1 180333Z 20013KT 07/01 A3003 RMK A01 T00670008  RH  066%=      5-min Rain = 0
KQU1 180334Z 20013KT 07/01 A3003 RMK A01 T00670009  RH  066%=      5-min Rain = 0
KQU1 180335Z 20013KT 07/01 A3003 RMK A01 T00670010  RH  067%=      5-min Rain = 0
KQU1 180336Z 20013KT 07/01 A3003 RMK A01 T00680010  RH  067%=      5-min Rain = 0
KQU1 180337Z 20013KT 07/01 A3003 RMK A01 T00690011  RH  067%=      5-min Rain = 0
KQU1 180338Z 20013KT 07/01 A3003 RMK A01 T00690011  RH  066%=      5-min Rain = 0
KQU1 180339Z 20013KT 07/01 A3003 RMK A01 T00700011  RH  066%=      5-min Rain = 0
KQU1 180340Z 20013KT 07/01 A3003 RMK A01 T00700012  RH  067%=      5-min Rain = 0
KQU1 180341Z 20013KT 07/01 A3003 RMK A01 T00710012  RH  066%=      5-min Rain = 0
KQU1 180342Z 21013KT 07/01 A3003 RMK A01 T00710012  RH  066%=      5-min Rain = 0
KQU1 180343Z 20013KT 07/01 A3003 RMK A01 T00710012  RH  066%=      5-min Rain = 0
KQU1 180344Z 20013KT 07/01 A3003 RMK A01 T00710012  RH  066%=      5-min Rain = 0
KQU1 180345Z 20013KT 07/01 A3003 RMK A01 T00710013  RH  066%=      5-min Rain = 0
KQU1 180346Z 20013KT 07/01 A3003 RMK A01 T00720013  RH  066%=      5-min Rain = 0
KQU1 180347Z 20013KT 07/01 A3003 RMK A01 T00720013  RH  066%=      5-min Rain = 0
KQU1 180348Z 20013KT 07/01 A3003 RMK A01 T00720013  RH  066%=      5-min Rain = 0
KQU1 180349Z 20013KT 07/01 A3003 RMK A01 T00720013  RH  066%=      5-min Rain = 0
KQU1 180350Z 21013KT 07/01 A3003 RMK A01 T00720013  RH  066%=      5-min Rain = 0
KQU1 180351Z 20012KT 07/01 A3003 RMK A01 T00720013  RH  066%=      5-min Rain = 0
KQU1 180352Z 20012KT 07/01 A3003 RMK A01 T00710013  RH  066%=      5-min Rain = 0
KQU1 180353Z 20011KT 07/01 A3003 RMK A01 T00710013  RH  067%=      5-min Rain = 0
KQU1 180354Z 20011KT 07/01 A3003 RMK A01 T00710013  RH  067%=      5-min Rain = 0
KQU1 180355Z 20010KT 07/01 A3002 RMK A01 T00710014  RH  067%=      5-min Rain = 0
KQU1 180356Z 20011KT 07/01 A3002 RMK A01 T00710014  RH  067%=      5-min Rain = 0
KQU1 180357Z 20011KT 07/02 A3002 RMK A01 T00720015  RH  067%=      5-min Rain = 0
KQU1 180358Z 20010KT 07/02 A3002 RMK A01 T00730015  RH  067%=      5-min Rain = 0
KQU1 180359Z 20010KT 07/02 A3002 RMK A01 T00730015  RH  066%=      5-min Rain = 0
KQU1 180400Z 20010KT 07/02 A3002 RMK A01 T00740015  RH  066%=      5-min Rain = 0
KQU1 180401Z 20010KT 07/02 A3002 RMK A01 T00740015  RH  066%=      5-min Rain = 0
KQU1 180402Z 20010KT 08/02 A3002 RMK A01 T00750015  RH  066%=      5-min Rain = 0
KQU1 180403Z 20011KT 08/02 A3002 RMK A01 T00750016  RH  066%=      5-min Rain = 0
KQU1 180404Z 20011KT 08/02 A3002 RMK A01 T00760016  RH  066%=      5-min Rain = 0
KQU1 180405Z 20011KT 08/02 A3002 RMK A01 T00770016  RH  065%=      5-min Rain = 0
KQU1 180406Z 20012KT 08/02 A3002 RMK A01 T00780016  RH  065%=      5-min Rain = 0
KQU1 180407Z 20012KT 08/02 A3002 RMK A01 T00790016  RH  064%=      5-min Rain = 0
KQU1 180408Z 20013KT 08/02 A3002 RMK A01 T00800016  RH  064%=      5-min Rain = 0
KQU1 180409Z 20012KT 08/02 A3002 RMK A01 T00810016  RH  064%=      5-min Rain = 0
KQU1 180410Z 21013KT 08/02 A3002 RMK A01 T00810016  RH  063%=      5-min Rain = 0
KQU1 180411Z 21013KT 08/02 A3002 RMK A01 T00820016  RH  063%=      5-min Rain = 0
KQU1 180412Z 21013KT 08/02 A3002 RMK A01 T00820016  RH  063%=      5-min Rain = 0
KQU1 180413Z 21013KT 08/02 A3002 RMK A01 T00820016  RH  063%=      5-min Rain = 0
KQU1 180414Z 21013KT 08/02 A3002 RMK A01 T00820016  RH  063%=      5-min Rain = 0
KQU1 180415Z 21013KT 08/02 A3002 RMK A01 T00830016  RH  063%=      5-min Rain = 0
KQU1 180416Z 20013KT 08/02 A3002 RMK A01 T00830016  RH  063%=      5-min Rain = 0
KQU1 180417Z 20012KT 08/02 A3002 RMK A01 T00820016  RH  063%=      5-min Rain = 0
KQU1 180418Z 20011KT 08/02 A3002 RMK A01 T00820016  RH  063%=      5-min Rain = 0
KQU1 180419Z 20012KT 08/02 A3002 RMK A01 T00810016  RH  063%=      5-min Rain = 0
KQU1 180420Z 20012KT 08/02 A3002 RMK A01 T00810016  RH  063%=      5-min Rain = 0
KQU1 180421Z 21012KT 08/02 A3002 RMK A01 T00800016  RH  064%=      5-min Rain = 0
KQU1 180422Z 20012KT 08/02 A3002 RMK A01 T00800016  RH  064%=      5-min Rain = 0
KQU1 180423Z 21013KT 08/02 A3001 RMK A01 T00810017  RH  064%=      5-min Rain = 0
KQU1 180424Z 20013KT 08/02 A3001 RMK A01 T00810017  RH  064%=      5-min Rain = 0
KQU1 180425Z 20014KT 08/02 A3001 RMK A01 T00810018  RH  064%=      5-min Rain = 0
KQU1 180426Z 20014KT 08/02 A3001 RMK A01 T00820018  RH  064%=      5-min Rain = 0
KQU1 180427Z 20013KT 08/02 A3001 RMK A01 T00830018  RH  064%=      5-min Rain = 0
KQU1 180428Z 20013KT 08/02 A3001 RMK A01 T00830018  RH  064%=      5-min Rain = 0
KQU1 180429Z 20014KT 08/02 A3001 RMK A01 T00830018  RH  064%=      5-min Rain = 0
KQU1 180430Z 20015KT 08/02 A3001 RMK A01 T00830019  RH  064%=      5-min Rain = 0
KQU1 180431Z 20014KT 08/02 A3001 RMK A01 T00840019  RH  064%=      5-min Rain = 0
KQU1 180432Z 20014KT 08/02 A3001 RMK A01 T00840019  RH  064%=      5-min Rain = 0
KQU1 180433Z 20014KT 08/02 A3001 RMK A01 T00840019  RH  064%=      5-min Rain = 0
KQU1 180434Z 20014KT 08/02 A3001 RMK A01 T00840019  RH  064%=      5-min Rain = 0
KQU1 180435Z 20014KT 08/02 A3001 RMK A01 T00840019  RH  064%=      5-min Rain = 0
KQU1 180436Z 20013KT 08/02 A3001 RMK A01 T00840019  RH  064%=      5-min Rain = 0
KQU1 180437Z 20014KT 08/02 A3001 RMK A01 T00830019  RH  064%=      5-min Rain = 0
KQU1 180438Z 20013KT 08/02 A3001 RMK A01 T00830019  RH  064%=      5-min Rain = 0
KQU1 180439Z 20013KT 08/02 A3001 RMK A01 T00830019  RH  064%=      5-min Rain = 0
KQU1 180440Z 20013KT 08/02 A3001 RMK A01 T00830019  RH  064%=      5-min Rain = 0
KQU1 180441Z 20013KT 08/02 A3001 RMK A01 T00830018  RH  064%=      5-min Rain = 0
KQU1 180442Z 20013KT 08/02 A3001 RMK A01 T00830018  RH  064%=      5-min Rain = 0
KQU1 180443Z 20013KT 08/02 A3001 RMK A01 T00820018  RH  064%=      5-min Rain = 0
KQU1 180444Z 20013KT 08/02 A3001 RMK A01 T00820018  RH  064%=      5-min Rain = 0
KQU1 180445Z 20013KT 08/02 A3001 RMK A01 T00810018  RH  064%=      5-min Rain = 0
KQU1 180446Z 20013KT 08/02 A3001 RMK A01 T00810017  RH  064%=      5-min Rain = 0
KQU1 180447Z 20013KT 08/02 A3001 RMK A01 T00800017  RH  064%=      5-min Rain = 0
KQU1 180448Z 20013KT 08/02 A3001 RMK A01 T00800017  RH  064%=      5-min Rain = 0
KQU1 180449Z 20013KT 08/02 A3001 RMK A01 T00800017  RH  065%=      5-min Rain = 0
KQU1 180450Z 20013KT 08/02 A3001 RMK A01 T00800017  RH  065%=      5-min Rain = 0
KQU1 180451Z 20013KT 08/02 A3001 RMK A01 T00800018  RH  065%=      5-min Rain = 0
KQU1 180452Z 20013KT 08/02 A3001 RMK A01 T00800018  RH  065%=      5-min Rain = 0
KQU1 180453Z 20013KT 08/02 A3001 RMK A01 T00800018  RH  065%=      5-min Rain = 0
KQU1 180454Z 20013KT 08/02 A3001 RMK A01 T00800018  RH  065%=      5-min Rain = 0
KQU1 180455Z 20013KT 08/02 A3001 RMK A01 T00800018  RH  065%=      5-min Rain = 0
KQU1 180456Z 20013KT 08/02 A3001 RMK A01 T00810018  RH  065%=      5-min Rain = 0
KQU1 180457Z 20013KT 08/02 A3001 RMK A01 T00810018  RH  065%=      5-min Rain = 0
KQU1 180458Z 20013KT 08/02 A3001 RMK A01 T00810018  RH  064%=      5-min Rain = 0
KQU1 180459Z 20014KT 08/02 A3001 RMK A01 T00810018  RH  064%=      5-min Rain = 0
KQU1 180500Z 20014KT 08/02 A3001 RMK A01 T00820018  RH  064%=      5-min Rain = 0
KQU1 180501Z 20014KT 08/02 A3001 RMK A01 T00820018  RH  064%=      5-min Rain = 0
KQU1 180502Z 20013KT 08/02 A3001 RMK A01 T00820018  RH  064%=      5-min Rain = 0
KQU1 180503Z 20013KT 08/02 A3001 RMK A01 T00810018  RH  064%=      5-min Rain = 0
KQU1 180504Z 20013KT 08/02 A3001 RMK A01 T00800018  RH  065%=      5-min Rain = 0
KQU1 180505Z 20013KT 08/02 A3001 RMK A01 T00800018  RH  065%=      5-min Rain = 0
KQU1 180506Z 20012KT 08/02 A3001 RMK A01 T00790018  RH  065%=      5-min Rain = 0
KQU1 180507Z 20013KT 08/02 A3001 RMK A01 T00790018  RH  065%=      5-min Rain = 0
KQU1 180508Z 20013KT 08/02 A3001 RMK A01 T00780018  RH  066%=      5-min Rain = 0
KQU1 180509Z 21013KT 08/02 A30 RMK A01 T00780018  RH  065%=      5-min Rain = 0
KQU1 180510Z 20013KT 08/02 A30 RMK A01 T00780017  RH  065%=      5-min Rain = 0
KQU1 180511Z 20012KT 08/02 A30 RMK A01 T00770017  RH  065%=      5-min Rain = 0
KQU1 180512Z 20012KT 08/02 A30 RMK A01 T00770016  RH  065%=      5-min Rain = 0
KQU1 180513Z 20012KT 08/02 A30 RMK A01 T00760016  RH  066%=      5-min Rain = 0
KQU1 180514Z 20012KT 08/02 A30 RMK A01 T00760016  RH  066%=      5-min Rain = 0
KQU1 180515Z 20011KT 08/02 A30 RMK A01 T00750016  RH  066%=      5-min Rain = 0
KQU1 180516Z 20012KT 07/02 A30 RMK A01 T00740015  RH  066%=      5-min Rain = 0
KQU1 180517Z 20012KT 07/02 A30 RMK A01 T00730015  RH  067%=      5-min Rain = 0
KQU1 180518Z 20012KT 07/02 A30 RMK A01 T00730015  RH  067%=      5-min Rain = 0
KQU1 180519Z 21012KT 07/02 A30 RMK A01 T00720015  RH  067%=      5-min Rain = 0
KQU1 180520Z 21012KT 07/02 A30 RMK A01 T00720015  RH  067%=      5-min Rain = 0
KQU1 180521Z 21012KT 07/02 A30 RMK A01 T00720015  RH  067%=      5-min Rain = 0
KQU1 180522Z 21012KT 07/02 A30 RMK A01 T00720015  RH  067%=      5-min Rain = 0
KQU1 180523Z 21012KT 07/02 A30 RMK A01 T00720015  RH  067%=      5-min Rain = 0
KQU1 180524Z 21012KT 07/02 A30 RMK A01 T00720015  RH  067%=      5-min Rain = 0
KQU1 180525Z 21012KT 07/02 A30 RMK A01 T00720015  RH  067%=      5-min Rain = 0
KQU1 180526Z 21012KT 07/02 A30 RMK A01 T00730015  RH  067%=      5-min Rain = 0
KQU1 180527Z 21013KT 07/02 A30 RMK A01 T00730016  RH  067%=      5-min Rain = 0
KQU1 180528Z 21013KT 07/02 A30 RMK A01 T00740016  RH  066%=      5-min Rain = 0
KQU1 180529Z 21013KT 08/02 A30 RMK A01 T00750016  RH  066%=      5-min Rain = 0
KQU1 180530Z 21013KT 08/02 A30 RMK A01 T00760017  RH  066%=      5-min Rain = 0
KQU1 180531Z 21013KT 08/02 A30 RMK A01 T00770016  RH  066%=      5-min Rain = 0
KQU1 180532Z 21013KT 08/02 A30 RMK A01 T00770016  RH  065%=      5-min Rain = 0
KQU1 180533Z 21013KT 08/02 A30 RMK A01 T00770016  RH  065%=      5-min Rain = 0
KQU1 180534Z 21013KT 08/02 A30 RMK A01 T00770016  RH  065%=      5-min Rain = 0
KQU1 180535Z 21012KT 08/02 A30 RMK A01 T00760015  RH  066%=      5-min Rain = 0
KQU1 180536Z 21012KT 07/02 A30 RMK A01 T00740015  RH  066%=      5-min Rain = 0
KQU1 180537Z 21013KT 07/02 A30 RMK A01 T00730015  RH  066%=      5-min Rain = 0
KQU1 180538Z 21012KT 07/02 A30 RMK A01 T00730015  RH  067%=      5-min Rain = 0
KQU1 180539Z 21012KT 07/02 A30 RMK A01 T00720015  RH  067%=      5-min Rain = 0
KQU1 180540Z 21012KT 07/02 A30 RMK A01 T00720015  RH  067%=      5-min Rain = 0
KQU1 180541Z 21012KT 07/02 A30 RMK A01 T00720015  RH  067%=      5-min Rain = 0
KQU1 180542Z 21012KT 07/02 A30 RMK A01 T00720015  RH  067%=      5-min Rain = 0
KQU1 180543Z 21012KT 07/02 A30 RMK A01 T00720015  RH  067%=      5-min Rain = 0
KQU1 180544Z 21012KT 07/02 A30 RMK A01 T00720015  RH  067%=      5-min Rain = 0
KQU1 180545Z 21011KT 07/02 A30 RMK A01 T00730015  RH  067%=      5-min Rain = 0
KQU1 180546Z 21010KT 07/01 A30 RMK A01 T00720014  RH  067%=      5-min Rain = 0
KQU1 180547Z 21010KT 07/01 A30 RMK A01 T00710014  RH  067%=      5-min Rain = 0
KQU1 180548Z 21011KT 07/02 A2999 RMK A01 T00700015  RH  068%=      5-min Rain = 0
KQU1 180549Z 21011KT 07/02 A2999 RMK A01 T00710015  RH  068%=      5-min Rain = 0
KQU1 180550Z 21011KT 07/02 A2999 RMK A01 T00710015  RH  068%=      5-min Rain = 0
KQU1 180551Z 21010KT 07/01 A2999 RMK A01 T00710014  RH  067%=      5-min Rain = 0
KQU1 180552Z 20010KT 07/01 A2999 RMK A01 T00690013  RH  067%=      5-min Rain = 0
KQU1 180553Z 21011KT 07/01 A2999 RMK A01 T00680014  RH  068%=      5-min Rain = 0
KQU1 180554Z 21011KT 07/02 A2999 RMK A01 T00700015  RH  068%=      5-min Rain = 0
KQU1 180555Z 21012KT 07/02 A2999 RMK A01 T00720016  RH  068%=      5-min Rain = 0
KQU1 180556Z 21011KT 07/02 A2999 RMK A01 T00740017  RH  067%=      5-min Rain = 0
KQU1 180557Z 21012KT 08/02 A2999 RMK A01 T00770016  RH  066%=      5-min Rain = 0
KQU1 180558Z 21011KT 08/02 A2999 RMK A01 T00780016  RH  065%=      5-min Rain = 0
KQU1 180559Z 20011KT 08/02 A2999 RMK A01 T00790016  RH  064%=      5-min Rain = 0

Page generated in 0.0777 seconds.